<?xml version="1.0" encoding="UTF-8" standalone="no" ?>
<gpx xmlns="http://www.topografix.com/GPX/1/1" xmlns:xsi="http://www.w3.org/2001/XMLSchema-instance" xsi:schemaLocation="http://www.topografix.com/GPX/1/1 http://www.topografix.com/GPX/1/1/gpx.xsd" version="1.1" creator="VisuGPX - https://www.visugpx.com">
  <metadata>
    <name>Bourg de Visa 13.4 km</name>
  </metadata>
  <trk>
    <name><![CDATA[2025 07 27 Bourg de Visa Pierre]]></name>
    <extensions>
      <line xmlns="http://www.topografix.com/GPX/gpx_style/0/2">
        <color>0000FF</color>
        <width>4</width>
      </line>
    </extensions>
    <trkseg>
      <trkpt lat="44.2619" lon="0.95896">
        <ele>227.2</ele>
        <time>2025-07-27T07:11:04.498Z</time>
      </trkpt>
      <trkpt lat="44.26183" lon="0.95883">
        <ele>227.4</ele>
        <time>2025-07-27T07:11:20.498Z</time>
      </trkpt>
      <trkpt lat="44.26178" lon="0.95875">
        <ele>227.5</ele>
        <time>2025-07-27T07:11:32.498Z</time>
      </trkpt>
      <trkpt lat="44.26177" lon="0.95864">
        <ele>227.4</ele>
        <time>2025-07-27T07:11:40.498Z</time>
      </trkpt>
      <trkpt lat="44.26172" lon="0.95844">
        <ele>227.1</ele>
        <time>2025-07-27T07:11:56.498Z</time>
      </trkpt>
      <trkpt lat="44.26176" lon="0.95833">
        <ele>227</ele>
        <time>2025-07-27T07:12:04.498Z</time>
      </trkpt>
      <trkpt lat="44.26179" lon="0.95828">
        <ele>226.9</ele>
        <time>2025-07-27T07:12:08.498Z</time>
      </trkpt>
      <trkpt lat="44.26186" lon="0.95796">
        <ele>226.2</ele>
        <time>2025-07-27T07:12:32.498Z</time>
      </trkpt>
      <trkpt lat="44.26188" lon="0.95792">
        <ele>226</ele>
        <time>2025-07-27T07:12:38.498Z</time>
      </trkpt>
      <trkpt lat="44.26191" lon="0.95784">
        <ele>225.5</ele>
        <time>2025-07-27T07:12:44.498Z</time>
      </trkpt>
      <trkpt lat="44.2619" lon="0.95779">
        <ele>225.2</ele>
        <time>2025-07-27T07:12:48.498Z</time>
      </trkpt>
      <trkpt lat="44.26192" lon="0.95775">
        <ele>225.1</ele>
        <time>2025-07-27T07:12:52.498Z</time>
      </trkpt>
      <trkpt lat="44.26182" lon="0.95703">
        <ele>222.8</ele>
        <time>2025-07-27T07:13:40.498Z</time>
      </trkpt>
      <trkpt lat="44.26179" lon="0.95697">
        <ele>222.5</ele>
        <time>2025-07-27T07:13:56.498Z</time>
      </trkpt>
      <trkpt lat="44.26194" lon="0.95657">
        <ele>218.7</ele>
        <time>2025-07-27T07:14:20.498Z</time>
      </trkpt>
      <trkpt lat="44.26206" lon="0.95635">
        <ele>217.9</ele>
        <time>2025-07-27T07:14:36.498Z</time>
      </trkpt>
      <trkpt lat="44.26221" lon="0.95606">
        <ele>214.8</ele>
        <time>2025-07-27T07:14:56.498Z</time>
      </trkpt>
      <trkpt lat="44.26221" lon="0.95601">
        <ele>214.6</ele>
        <time>2025-07-27T07:15:00.498Z</time>
      </trkpt>
      <trkpt lat="44.26204" lon="0.95587">
        <ele>213.5</ele>
        <time>2025-07-27T07:15:16.498Z</time>
      </trkpt>
      <trkpt lat="44.26198" lon="0.95579">
        <ele>212.9</ele>
        <time>2025-07-27T07:15:24.498Z</time>
      </trkpt>
      <trkpt lat="44.26189" lon="0.95574">
        <ele>212.5</ele>
        <time>2025-07-27T07:15:32.498Z</time>
      </trkpt>
      <trkpt lat="44.2618" lon="0.95565">
        <ele>212.2</ele>
        <time>2025-07-27T07:15:40.498Z</time>
      </trkpt>
      <trkpt lat="44.26178" lon="0.95559">
        <ele>212</ele>
        <time>2025-07-27T07:15:44.498Z</time>
      </trkpt>
      <trkpt lat="44.26181" lon="0.95544">
        <ele>211.2</ele>
        <time>2025-07-27T07:15:52.498Z</time>
      </trkpt>
      <trkpt lat="44.26182" lon="0.95516">
        <ele>210.2</ele>
        <time>2025-07-27T07:16:08.498Z</time>
      </trkpt>
      <trkpt lat="44.2618" lon="0.95511">
        <ele>210.3</ele>
        <time>2025-07-27T07:16:12.498Z</time>
      </trkpt>
      <trkpt lat="44.26168" lon="0.95503">
        <ele>211</ele>
        <time>2025-07-27T07:16:24.498Z</time>
      </trkpt>
      <trkpt lat="44.26164" lon="0.95492">
        <ele>210.6</ele>
        <time>2025-07-27T07:16:32.498Z</time>
      </trkpt>
      <trkpt lat="44.26166" lon="0.95384">
        <ele>210.4</ele>
        <time>2025-07-27T07:17:36.498Z</time>
      </trkpt>
      <trkpt lat="44.26168" lon="0.95358">
        <ele>212</ele>
        <time>2025-07-27T07:17:52.498Z</time>
      </trkpt>
      <trkpt lat="44.26187" lon="0.95254">
        <ele>215.4</ele>
        <time>2025-07-27T07:18:56.498Z</time>
      </trkpt>
      <trkpt lat="44.26209" lon="0.95151">
        <ele>218.2</ele>
        <time>2025-07-27T07:20:00.498Z</time>
      </trkpt>
      <trkpt lat="44.26216" lon="0.95126">
        <ele>218.5</ele>
        <time>2025-07-27T07:20:16.498Z</time>
      </trkpt>
      <trkpt lat="44.26236" lon="0.95025">
        <ele>220.5</ele>
        <time>2025-07-27T07:21:20.498Z</time>
      </trkpt>
      <trkpt lat="44.26243" lon="0.95">
        <ele>220.5</ele>
        <time>2025-07-27T07:21:36.498Z</time>
      </trkpt>
      <trkpt lat="44.2625" lon="0.94983">
        <ele>220</ele>
        <time>2025-07-27T07:21:52.498Z</time>
      </trkpt>
      <trkpt lat="44.2625" lon="0.94962">
        <ele>219.6</ele>
        <time>2025-07-27T07:22:08.498Z</time>
      </trkpt>
      <trkpt lat="44.26253" lon="0.94936">
        <ele>217.7</ele>
        <time>2025-07-27T07:22:24.498Z</time>
      </trkpt>
      <trkpt lat="44.26252" lon="0.94911">
        <ele>214.6</ele>
        <time>2025-07-27T07:22:40.498Z</time>
      </trkpt>
      <trkpt lat="44.26257" lon="0.94874">
        <ele>211.3</ele>
        <time>2025-07-27T07:23:04.498Z</time>
      </trkpt>
      <trkpt lat="44.26256" lon="0.94861">
        <ele>209.4</ele>
        <time>2025-07-27T07:23:12.498Z</time>
      </trkpt>
      <trkpt lat="44.26259" lon="0.94848">
        <ele>207.6</ele>
        <time>2025-07-27T07:23:20.498Z</time>
      </trkpt>
      <trkpt lat="44.26266" lon="0.94829">
        <ele>205</ele>
        <time>2025-07-27T07:23:36.498Z</time>
      </trkpt>
      <trkpt lat="44.26268" lon="0.94819">
        <ele>203.6</ele>
        <time>2025-07-27T07:23:44.498Z</time>
      </trkpt>
      <trkpt lat="44.26271" lon="0.94812">
        <ele>202.7</ele>
        <time>2025-07-27T07:23:52.498Z</time>
      </trkpt>
      <trkpt lat="44.26271" lon="0.94785">
        <ele>199.9</ele>
        <time>2025-07-27T07:24:12.498Z</time>
      </trkpt>
      <trkpt lat="44.26269" lon="0.94782">
        <ele>199.7</ele>
        <time>2025-07-27T07:24:16.498Z</time>
      </trkpt>
      <trkpt lat="44.26268" lon="0.94755">
        <ele>198.3</ele>
        <time>2025-07-27T07:24:32.498Z</time>
      </trkpt>
      <trkpt lat="44.26265" lon="0.94734">
        <ele>199</ele>
        <time>2025-07-27T07:24:44.498Z</time>
      </trkpt>
      <trkpt lat="44.26268" lon="0.94716">
        <ele>199.7</ele>
        <time>2025-07-27T07:24:56.498Z</time>
      </trkpt>
      <trkpt lat="44.2627" lon="0.9471">
        <ele>200.1</ele>
        <time>2025-07-27T07:25:00.498Z</time>
      </trkpt>
      <trkpt lat="44.2627" lon="0.94686">
        <ele>202.4</ele>
        <time>2025-07-27T07:25:16.498Z</time>
      </trkpt>
      <trkpt lat="44.26272" lon="0.94674">
        <ele>203.7</ele>
        <time>2025-07-27T07:25:26.498Z</time>
      </trkpt>
      <trkpt lat="44.2627" lon="0.94669">
        <ele>204.3</ele>
        <time>2025-07-27T07:25:30.498Z</time>
      </trkpt>
      <trkpt lat="44.26273" lon="0.94625">
        <ele>207.4</ele>
        <time>2025-07-27T07:25:58.498Z</time>
      </trkpt>
      <trkpt lat="44.2627" lon="0.94619">
        <ele>207.7</ele>
        <time>2025-07-27T07:26:02.498Z</time>
      </trkpt>
      <trkpt lat="44.26272" lon="0.94602">
        <ele>207.3</ele>
        <time>2025-07-27T07:26:14.498Z</time>
      </trkpt>
      <trkpt lat="44.2627" lon="0.9458">
        <ele>206.3</ele>
        <time>2025-07-27T07:26:30.498Z</time>
      </trkpt>
      <trkpt lat="44.26265" lon="0.9457">
        <ele>205.8</ele>
        <time>2025-07-27T07:26:37.498Z</time>
      </trkpt>
      <trkpt lat="44.26266" lon="0.94558">
        <ele>204.6</ele>
        <time>2025-07-27T07:26:45.498Z</time>
      </trkpt>
      <trkpt lat="44.26263" lon="0.94525">
        <ele>201.2</ele>
        <time>2025-07-27T07:27:09.498Z</time>
      </trkpt>
      <trkpt lat="44.26258" lon="0.945">
        <ele>198.7</ele>
        <time>2025-07-27T07:27:25.498Z</time>
      </trkpt>
      <trkpt lat="44.26255" lon="0.94469">
        <ele>197.3</ele>
        <time>2025-07-27T07:27:41.498Z</time>
      </trkpt>
      <trkpt lat="44.26256" lon="0.94443">
        <ele>195.9</ele>
        <time>2025-07-27T07:27:57.498Z</time>
      </trkpt>
      <trkpt lat="44.26252" lon="0.94408">
        <ele>197.9</ele>
        <time>2025-07-27T07:28:21.498Z</time>
      </trkpt>
      <trkpt lat="44.26252" lon="0.94396">
        <ele>198</ele>
        <time>2025-07-27T07:28:29.498Z</time>
      </trkpt>
      <trkpt lat="44.26248" lon="0.94381">
        <ele>198.7</ele>
        <time>2025-07-27T07:28:37.498Z</time>
      </trkpt>
      <trkpt lat="44.26244" lon="0.94356">
        <ele>200.7</ele>
        <time>2025-07-27T07:28:55.498Z</time>
      </trkpt>
      <trkpt lat="44.26241" lon="0.94316">
        <ele>205</ele>
        <time>2025-07-27T07:29:27.498Z</time>
      </trkpt>
      <trkpt lat="44.26238" lon="0.94297">
        <ele>207.1</ele>
        <time>2025-07-27T07:29:43.498Z</time>
      </trkpt>
      <trkpt lat="44.26235" lon="0.9423">
        <ele>211.5</ele>
        <time>2025-07-27T07:30:35.498Z</time>
      </trkpt>
      <trkpt lat="44.26228" lon="0.94218">
        <ele>212.8</ele>
        <time>2025-07-27T07:30:43.498Z</time>
      </trkpt>
      <trkpt lat="44.26229" lon="0.94187">
        <ele>214.5</ele>
        <time>2025-07-27T07:31:07.498Z</time>
      </trkpt>
      <trkpt lat="44.26229" lon="0.94178">
        <ele>214.9</ele>
        <time>2025-07-27T07:31:15.498Z</time>
      </trkpt>
      <trkpt lat="44.26224" lon="0.94136">
        <ele>218.1</ele>
        <time>2025-07-27T07:31:47.498Z</time>
      </trkpt>
      <trkpt lat="44.26222" lon="0.94132">
        <ele>218.6</ele>
        <time>2025-07-27T07:31:51.498Z</time>
      </trkpt>
      <trkpt lat="44.26222" lon="0.94105">
        <ele>220.9</ele>
        <time>2025-07-27T07:32:15.498Z</time>
      </trkpt>
      <trkpt lat="44.26223" lon="0.94104">
        <ele>221</ele>
        <time>2025-07-27T07:32:31.498Z</time>
      </trkpt>
      <trkpt lat="44.26231" lon="0.94099">
        <ele>221.2</ele>
        <time>2025-07-27T07:35:13.498Z</time>
      </trkpt>
      <trkpt lat="44.26233" lon="0.94096">
        <ele>221.4</ele>
        <time>2025-07-27T07:35:25.498Z</time>
      </trkpt>
      <trkpt lat="44.26246" lon="0.94087">
        <ele>221.8</ele>
        <time>2025-07-27T07:35:41.498Z</time>
      </trkpt>
      <trkpt lat="44.26261" lon="0.94083">
        <ele>221.6</ele>
        <time>2025-07-27T07:36:05.498Z</time>
      </trkpt>
      <trkpt lat="44.26272" lon="0.94083">
        <ele>221.3</ele>
        <time>2025-07-27T07:36:13.498Z</time>
      </trkpt>
      <trkpt lat="44.26281" lon="0.94079">
        <ele>221.5</ele>
        <time>2025-07-27T07:36:21.498Z</time>
      </trkpt>
      <trkpt lat="44.26289" lon="0.94077">
        <ele>221.7</ele>
        <time>2025-07-27T07:36:31.498Z</time>
      </trkpt>
      <trkpt lat="44.26298" lon="0.94072">
        <ele>222.2</ele>
        <time>2025-07-27T07:36:37.498Z</time>
      </trkpt>
      <trkpt lat="44.26307" lon="0.94065">
        <ele>223</ele>
        <time>2025-07-27T07:36:45.498Z</time>
      </trkpt>
      <trkpt lat="44.2631" lon="0.94053">
        <ele>224</ele>
        <time>2025-07-27T07:36:55.498Z</time>
      </trkpt>
      <trkpt lat="44.26307" lon="0.94042">
        <ele>225</ele>
        <time>2025-07-27T07:37:11.498Z</time>
      </trkpt>
      <trkpt lat="44.26304" lon="0.93968">
        <ele>227.9</ele>
        <time>2025-07-27T07:37:59.498Z</time>
      </trkpt>
      <trkpt lat="44.26297" lon="0.93912">
        <ele>227.7</ele>
        <time>2025-07-27T07:38:31.498Z</time>
      </trkpt>
      <trkpt lat="44.26291" lon="0.93894">
        <ele>227.5</ele>
        <time>2025-07-27T07:38:47.498Z</time>
      </trkpt>
      <trkpt lat="44.26281" lon="0.93788">
        <ele>225.5</ele>
        <time>2025-07-27T07:39:51.498Z</time>
      </trkpt>
      <trkpt lat="44.26277" lon="0.93761">
        <ele>225</ele>
        <time>2025-07-27T07:40:07.498Z</time>
      </trkpt>
      <trkpt lat="44.26276" lon="0.93735">
        <ele>224.9</ele>
        <time>2025-07-27T07:40:23.498Z</time>
      </trkpt>
      <trkpt lat="44.26278" lon="0.93721">
        <ele>224.9</ele>
        <time>2025-07-27T07:40:31.498Z</time>
      </trkpt>
      <trkpt lat="44.26275" lon="0.93664">
        <ele>222.8</ele>
        <time>2025-07-27T07:41:03.498Z</time>
      </trkpt>
      <trkpt lat="44.26276" lon="0.9365">
        <ele>222.8</ele>
        <time>2025-07-27T07:41:11.498Z</time>
      </trkpt>
      <trkpt lat="44.26274" lon="0.93592">
        <ele>220</ele>
        <time>2025-07-27T07:41:43.498Z</time>
      </trkpt>
      <trkpt lat="44.26277" lon="0.93547">
        <ele>215.3</ele>
        <time>2025-07-27T07:42:11.498Z</time>
      </trkpt>
      <trkpt lat="44.26275" lon="0.93533">
        <ele>214.2</ele>
        <time>2025-07-27T07:42:19.498Z</time>
      </trkpt>
      <trkpt lat="44.26262" lon="0.93483">
        <ele>210.9</ele>
        <time>2025-07-27T07:43:23.498Z</time>
      </trkpt>
      <trkpt lat="44.2626" lon="0.93471">
        <ele>210</ele>
        <time>2025-07-27T07:43:51.498Z</time>
      </trkpt>
      <trkpt lat="44.26246" lon="0.9341">
        <ele>203.3</ele>
        <time>2025-07-27T07:44:31.498Z</time>
      </trkpt>
      <trkpt lat="44.26245" lon="0.93398">
        <ele>202.4</ele>
        <time>2025-07-27T07:44:39.498Z</time>
      </trkpt>
      <trkpt lat="44.26238" lon="0.93372">
        <ele>201.3</ele>
        <time>2025-07-27T07:44:55.498Z</time>
      </trkpt>
      <trkpt lat="44.26232" lon="0.93363">
        <ele>200.8</ele>
        <time>2025-07-27T07:45:03.498Z</time>
      </trkpt>
      <trkpt lat="44.26207" lon="0.93348">
        <ele>200.7</ele>
        <time>2025-07-27T07:45:27.498Z</time>
      </trkpt>
      <trkpt lat="44.26199" lon="0.93345">
        <ele>200.4</ele>
        <time>2025-07-27T07:45:35.498Z</time>
      </trkpt>
      <trkpt lat="44.2619" lon="0.93345">
        <ele>199.5</ele>
        <time>2025-07-27T07:45:43.498Z</time>
      </trkpt>
      <trkpt lat="44.2617" lon="0.93334">
        <ele>194.8</ele>
        <time>2025-07-27T07:46:03.498Z</time>
      </trkpt>
      <trkpt lat="44.26163" lon="0.93328">
        <ele>194.5</ele>
        <time>2025-07-27T07:46:11.498Z</time>
      </trkpt>
      <trkpt lat="44.26145" lon="0.93297">
        <ele>190.7</ele>
        <time>2025-07-27T07:46:35.498Z</time>
      </trkpt>
      <trkpt lat="44.26136" lon="0.93279">
        <ele>187.8</ele>
        <time>2025-07-27T07:46:51.498Z</time>
      </trkpt>
      <trkpt lat="44.26119" lon="0.93251">
        <ele>185.3</ele>
        <time>2025-07-27T07:47:15.498Z</time>
      </trkpt>
      <trkpt lat="44.26109" lon="0.93229">
        <ele>185.1</ele>
        <time>2025-07-27T07:47:31.498Z</time>
      </trkpt>
      <trkpt lat="44.26097" lon="0.93205">
        <ele>184.9</ele>
        <time>2025-07-27T07:47:47.498Z</time>
      </trkpt>
      <trkpt lat="44.26092" lon="0.93191">
        <ele>183.3</ele>
        <time>2025-07-27T07:47:55.498Z</time>
      </trkpt>
      <trkpt lat="44.26093" lon="0.93184">
        <ele>183.1</ele>
        <time>2025-07-27T07:47:59.498Z</time>
      </trkpt>
      <trkpt lat="44.26105" lon="0.93161">
        <ele>184.2</ele>
        <time>2025-07-27T07:48:15.498Z</time>
      </trkpt>
      <trkpt lat="44.2611" lon="0.93156">
        <ele>184.3</ele>
        <time>2025-07-27T07:48:19.498Z</time>
      </trkpt>
      <trkpt lat="44.26113" lon="0.93149">
        <ele>183.7</ele>
        <time>2025-07-27T07:48:23.498Z</time>
      </trkpt>
      <trkpt lat="44.26125" lon="0.93135">
        <ele>183.8</ele>
        <time>2025-07-27T07:49:11.498Z</time>
      </trkpt>
      <trkpt lat="44.26142" lon="0.93131">
        <ele>187.1</ele>
        <time>2025-07-27T07:49:27.498Z</time>
      </trkpt>
      <trkpt lat="44.26148" lon="0.93131">
        <ele>189.2</ele>
        <time>2025-07-27T07:49:31.498Z</time>
      </trkpt>
      <trkpt lat="44.26158" lon="0.93128">
        <ele>192</ele>
        <time>2025-07-27T07:49:43.498Z</time>
      </trkpt>
      <trkpt lat="44.26163" lon="0.93121">
        <ele>192.2</ele>
        <time>2025-07-27T07:49:51.498Z</time>
      </trkpt>
      <trkpt lat="44.26171" lon="0.93106">
        <ele>194.1</ele>
        <time>2025-07-27T07:50:07.498Z</time>
      </trkpt>
      <trkpt lat="44.26172" lon="0.93096">
        <ele>195.5</ele>
        <time>2025-07-27T07:50:15.498Z</time>
      </trkpt>
      <trkpt lat="44.2617" lon="0.93085">
        <ele>195.8</ele>
        <time>2025-07-27T07:50:23.498Z</time>
      </trkpt>
      <trkpt lat="44.26166" lon="0.93074">
        <ele>196.7</ele>
        <time>2025-07-27T07:50:35.498Z</time>
      </trkpt>
      <trkpt lat="44.26159" lon="0.93071">
        <ele>196.3</ele>
        <time>2025-07-27T07:50:43.498Z</time>
      </trkpt>
      <trkpt lat="44.26142" lon="0.93069">
        <ele>193.4</ele>
        <time>2025-07-27T07:50:59.498Z</time>
      </trkpt>
      <trkpt lat="44.26138" lon="0.93066">
        <ele>194.1</ele>
        <time>2025-07-27T07:51:03.498Z</time>
      </trkpt>
      <trkpt lat="44.26131" lon="0.93056">
        <ele>197.3</ele>
        <time>2025-07-27T07:51:11.498Z</time>
      </trkpt>
      <trkpt lat="44.2611" lon="0.93043">
        <ele>197.2</ele>
        <time>2025-07-27T07:51:35.498Z</time>
      </trkpt>
      <trkpt lat="44.26106" lon="0.93038">
        <ele>198.5</ele>
        <time>2025-07-27T07:51:39.498Z</time>
      </trkpt>
      <trkpt lat="44.26103" lon="0.93025">
        <ele>201</ele>
        <time>2025-07-27T07:51:47.498Z</time>
      </trkpt>
      <trkpt lat="44.26105" lon="0.92995">
        <ele>201.5</ele>
        <time>2025-07-27T07:52:03.498Z</time>
      </trkpt>
      <trkpt lat="44.26094" lon="0.92946">
        <ele>203.9</ele>
        <time>2025-07-27T07:52:35.498Z</time>
      </trkpt>
      <trkpt lat="44.26083" lon="0.92908">
        <ele>204.2</ele>
        <time>2025-07-27T07:52:57.498Z</time>
      </trkpt>
      <trkpt lat="44.26076" lon="0.92897">
        <ele>205.4</ele>
        <time>2025-07-27T07:53:05.498Z</time>
      </trkpt>
      <trkpt lat="44.2606" lon="0.92862">
        <ele>208.8</ele>
        <time>2025-07-27T07:53:37.498Z</time>
      </trkpt>
      <trkpt lat="44.26057" lon="0.92857">
        <ele>209.5</ele>
        <time>2025-07-27T07:53:45.498Z</time>
      </trkpt>
      <trkpt lat="44.26038" lon="0.92825">
        <ele>213.9</ele>
        <time>2025-07-27T07:54:15.498Z</time>
      </trkpt>
      <trkpt lat="44.26029" lon="0.92809">
        <ele>215.6</ele>
        <time>2025-07-27T07:54:31.498Z</time>
      </trkpt>
      <trkpt lat="44.26027" lon="0.92803">
        <ele>216.5</ele>
        <time>2025-07-27T07:54:39.498Z</time>
      </trkpt>
      <trkpt lat="44.26006" lon="0.92772">
        <ele>220.8</ele>
        <time>2025-07-27T07:55:47.498Z</time>
      </trkpt>
      <trkpt lat="44.26001" lon="0.92767">
        <ele>221</ele>
        <time>2025-07-27T07:57:51.498Z</time>
      </trkpt>
      <trkpt lat="44.26006" lon="0.92744">
        <ele>220.9</ele>
        <time>2025-07-27T07:58:31.498Z</time>
      </trkpt>
      <trkpt lat="44.26012" lon="0.92659">
        <ele>219.1</ele>
        <time>2025-07-27T07:59:19.498Z</time>
      </trkpt>
      <trkpt lat="44.2601" lon="0.92646">
        <ele>218.6</ele>
        <time>2025-07-27T07:59:27.498Z</time>
      </trkpt>
      <trkpt lat="44.25999" lon="0.9261">
        <ele>218</ele>
        <time>2025-07-27T07:59:51.498Z</time>
      </trkpt>
      <trkpt lat="44.25996" lon="0.92605">
        <ele>217.9</ele>
        <time>2025-07-27T07:59:59.498Z</time>
      </trkpt>
      <trkpt lat="44.25977" lon="0.92624">
        <ele>215.9</ele>
        <time>2025-07-27T08:00:23.498Z</time>
      </trkpt>
      <trkpt lat="44.25966" lon="0.92628">
        <ele>214.9</ele>
        <time>2025-07-27T08:00:39.498Z</time>
      </trkpt>
      <trkpt lat="44.2596" lon="0.92633">
        <ele>214.3</ele>
        <time>2025-07-27T08:00:55.498Z</time>
      </trkpt>
      <trkpt lat="44.25942" lon="0.92642">
        <ele>212.8</ele>
        <time>2025-07-27T08:01:19.498Z</time>
      </trkpt>
      <trkpt lat="44.25935" lon="0.92649">
        <ele>212.3</ele>
        <time>2025-07-27T08:01:27.498Z</time>
      </trkpt>
      <trkpt lat="44.25905" lon="0.92668">
        <ele>210.2</ele>
        <time>2025-07-27T08:01:59.498Z</time>
      </trkpt>
      <trkpt lat="44.25878" lon="0.92681">
        <ele>208.5</ele>
        <time>2025-07-27T08:02:27.498Z</time>
      </trkpt>
      <trkpt lat="44.25873" lon="0.9268">
        <ele>208</ele>
        <time>2025-07-27T08:02:31.498Z</time>
      </trkpt>
      <trkpt lat="44.25856" lon="0.92658">
        <ele>205.3</ele>
        <time>2025-07-27T08:02:55.498Z</time>
      </trkpt>
      <trkpt lat="44.25842" lon="0.92651">
        <ele>203.7</ele>
        <time>2025-07-27T08:03:11.498Z</time>
      </trkpt>
      <trkpt lat="44.25835" lon="0.92639">
        <ele>202.2</ele>
        <time>2025-07-27T08:03:43.498Z</time>
      </trkpt>
      <trkpt lat="44.25832" lon="0.92638">
        <ele>201.9</ele>
        <time>2025-07-27T08:03:47.498Z</time>
      </trkpt>
      <trkpt lat="44.25824" lon="0.92644">
        <ele>201.3</ele>
        <time>2025-07-27T08:08:43.498Z</time>
      </trkpt>
      <trkpt lat="44.25811" lon="0.92652">
        <ele>200.6</ele>
        <time>2025-07-27T08:09:19.498Z</time>
      </trkpt>
      <trkpt lat="44.25795" lon="0.92664">
        <ele>199.7</ele>
        <time>2025-07-27T08:09:35.498Z</time>
      </trkpt>
      <trkpt lat="44.2578" lon="0.92672">
        <ele>198.3</ele>
        <time>2025-07-27T08:09:51.498Z</time>
      </trkpt>
      <trkpt lat="44.25773" lon="0.92674">
        <ele>197.5</ele>
        <time>2025-07-27T08:09:59.498Z</time>
      </trkpt>
      <trkpt lat="44.25754" lon="0.92686">
        <ele>196</ele>
        <time>2025-07-27T08:10:15.498Z</time>
      </trkpt>
      <trkpt lat="44.25737" lon="0.92692">
        <ele>194.2</ele>
        <time>2025-07-27T08:10:31.498Z</time>
      </trkpt>
      <trkpt lat="44.25731" lon="0.9269">
        <ele>193.5</ele>
        <time>2025-07-27T08:10:39.498Z</time>
      </trkpt>
      <trkpt lat="44.25725" lon="0.92676">
        <ele>194.1</ele>
        <time>2025-07-27T08:11:11.498Z</time>
      </trkpt>
      <trkpt lat="44.25693" lon="0.92568">
        <ele>204.7</ele>
        <time>2025-07-27T08:12:31.498Z</time>
      </trkpt>
      <trkpt lat="44.25683" lon="0.9255">
        <ele>206.5</ele>
        <time>2025-07-27T08:12:47.498Z</time>
      </trkpt>
      <trkpt lat="44.25649" lon="0.92452">
        <ele>214.5</ele>
        <time>2025-07-27T08:14:55.498Z</time>
      </trkpt>
      <trkpt lat="44.25645" lon="0.92454">
        <ele>214.3</ele>
        <time>2025-07-27T08:15:35.498Z</time>
      </trkpt>
      <trkpt lat="44.25623" lon="0.9248">
        <ele>213.3</ele>
        <time>2025-07-27T08:16:23.498Z</time>
      </trkpt>
      <trkpt lat="44.25588" lon="0.92514">
        <ele>212.4</ele>
        <time>2025-07-27T08:16:55.498Z</time>
      </trkpt>
      <trkpt lat="44.25556" lon="0.9255">
        <ele>212</ele>
        <time>2025-07-27T08:17:27.498Z</time>
      </trkpt>
      <trkpt lat="44.25547" lon="0.92556">
        <ele>211.7</ele>
        <time>2025-07-27T08:17:43.498Z</time>
      </trkpt>
      <trkpt lat="44.25521" lon="0.92591">
        <ele>211.6</ele>
        <time>2025-07-27T08:18:15.498Z</time>
      </trkpt>
      <trkpt lat="44.25505" lon="0.9261">
        <ele>211.8</ele>
        <time>2025-07-27T08:18:31.498Z</time>
      </trkpt>
      <trkpt lat="44.25462" lon="0.92676">
        <ele>210.1</ele>
        <time>2025-07-27T08:19:19.498Z</time>
      </trkpt>
      <trkpt lat="44.25445" lon="0.92693">
        <ele>209.1</ele>
        <time>2025-07-27T08:19:35.498Z</time>
      </trkpt>
      <trkpt lat="44.25409" lon="0.92722">
        <ele>207.3</ele>
        <time>2025-07-27T08:20:07.498Z</time>
      </trkpt>
      <trkpt lat="44.2539" lon="0.92734">
        <ele>207.1</ele>
        <time>2025-07-27T08:20:23.498Z</time>
      </trkpt>
      <trkpt lat="44.25369" lon="0.9274">
        <ele>207.2</ele>
        <time>2025-07-27T08:20:39.498Z</time>
      </trkpt>
      <trkpt lat="44.2535" lon="0.9274">
        <ele>206.8</ele>
        <time>2025-07-27T08:20:55.498Z</time>
      </trkpt>
      <trkpt lat="44.25344" lon="0.92737">
        <ele>206.6</ele>
        <time>2025-07-27T08:21:11.498Z</time>
      </trkpt>
      <trkpt lat="44.25357" lon="0.92714">
        <ele>207.4</ele>
        <time>2025-07-27T08:21:51.498Z</time>
      </trkpt>
      <trkpt lat="44.25362" lon="0.92692">
        <ele>206.8</ele>
        <time>2025-07-27T08:22:07.498Z</time>
      </trkpt>
      <trkpt lat="44.25366" lon="0.92681">
        <ele>205.9</ele>
        <time>2025-07-27T08:22:15.498Z</time>
      </trkpt>
      <trkpt lat="44.25371" lon="0.92659">
        <ele>204.3</ele>
        <time>2025-07-27T08:22:31.498Z</time>
      </trkpt>
      <trkpt lat="44.25392" lon="0.92608">
        <ele>201.4</ele>
        <time>2025-07-27T08:23:11.498Z</time>
      </trkpt>
      <trkpt lat="44.25425" lon="0.92547">
        <ele>200.1</ele>
        <time>2025-07-27T08:23:59.498Z</time>
      </trkpt>
      <trkpt lat="44.25443" lon="0.92519">
        <ele>201.1</ele>
        <time>2025-07-27T08:24:27.498Z</time>
      </trkpt>
      <trkpt lat="44.2545" lon="0.92495">
        <ele>198.6</ele>
        <time>2025-07-27T08:24:43.498Z</time>
      </trkpt>
      <trkpt lat="44.25456" lon="0.92485">
        <ele>199.3</ele>
        <time>2025-07-27T08:24:51.498Z</time>
      </trkpt>
      <trkpt lat="44.2549" lon="0.92413">
        <ele>200.7</ele>
        <time>2025-07-27T08:25:47.498Z</time>
      </trkpt>
      <trkpt lat="44.25496" lon="0.92385">
        <ele>199.7</ele>
        <time>2025-07-27T08:26:03.498Z</time>
      </trkpt>
      <trkpt lat="44.25525" lon="0.92328">
        <ele>201.6</ele>
        <time>2025-07-27T08:26:59.498Z</time>
      </trkpt>
      <trkpt lat="44.25527" lon="0.92318">
        <ele>201.4</ele>
        <time>2025-07-27T08:27:07.498Z</time>
      </trkpt>
      <trkpt lat="44.25525" lon="0.92314">
        <ele>201</ele>
        <time>2025-07-27T08:27:11.498Z</time>
      </trkpt>
      <trkpt lat="44.2551" lon="0.92313">
        <ele>199.8</ele>
        <time>2025-07-27T08:27:23.498Z</time>
      </trkpt>
      <trkpt lat="44.25506" lon="0.92309">
        <ele>199.4</ele>
        <time>2025-07-27T08:27:27.498Z</time>
      </trkpt>
      <trkpt lat="44.25503" lon="0.92303">
        <ele>199.2</ele>
        <time>2025-07-27T08:27:31.498Z</time>
      </trkpt>
      <trkpt lat="44.25509" lon="0.92191">
        <ele>203.1</ele>
        <time>2025-07-27T08:28:43.498Z</time>
      </trkpt>
      <trkpt lat="44.25505" lon="0.92168">
        <ele>203.9</ele>
        <time>2025-07-27T08:28:59.498Z</time>
      </trkpt>
      <trkpt lat="44.25503" lon="0.92122">
        <ele>206.6</ele>
        <time>2025-07-27T08:29:31.498Z</time>
      </trkpt>
      <trkpt lat="44.25489" lon="0.92031">
        <ele>211.5</ele>
        <time>2025-07-27T08:31:07.498Z</time>
      </trkpt>
      <trkpt lat="44.25477" lon="0.91996">
        <ele>215</ele>
        <time>2025-07-27T08:31:39.498Z</time>
      </trkpt>
      <trkpt lat="44.25457" lon="0.91963">
        <ele>218.6</ele>
        <time>2025-07-27T08:32:11.498Z</time>
      </trkpt>
      <trkpt lat="44.25426" lon="0.91925">
        <ele>220.2</ele>
        <time>2025-07-27T08:33:15.498Z</time>
      </trkpt>
      <trkpt lat="44.25427" lon="0.91918">
        <ele>220.3</ele>
        <time>2025-07-27T08:35:11.498Z</time>
      </trkpt>
      <trkpt lat="44.25428" lon="0.91891">
        <ele>220.4</ele>
        <time>2025-07-27T08:35:27.498Z</time>
      </trkpt>
      <trkpt lat="44.25445" lon="0.91801">
        <ele>220.8</ele>
        <time>2025-07-27T08:36:23.498Z</time>
      </trkpt>
      <trkpt lat="44.25444" lon="0.91787">
        <ele>220.3</ele>
        <time>2025-07-27T08:36:31.498Z</time>
      </trkpt>
      <trkpt lat="44.25439" lon="0.91776">
        <ele>219.5</ele>
        <time>2025-07-27T08:36:39.498Z</time>
      </trkpt>
      <trkpt lat="44.25435" lon="0.91771">
        <ele>218.8</ele>
        <time>2025-07-27T08:36:43.498Z</time>
      </trkpt>
      <trkpt lat="44.25432" lon="0.91764">
        <ele>218.1</ele>
        <time>2025-07-27T08:36:47.498Z</time>
      </trkpt>
      <trkpt lat="44.25433" lon="0.9175">
        <ele>217.3</ele>
        <time>2025-07-27T08:36:55.498Z</time>
      </trkpt>
      <trkpt lat="44.25438" lon="0.9174">
        <ele>216.8</ele>
        <time>2025-07-27T08:37:03.498Z</time>
      </trkpt>
      <trkpt lat="44.25446" lon="0.91733">
        <ele>217.3</ele>
        <time>2025-07-27T08:37:11.498Z</time>
      </trkpt>
      <trkpt lat="44.25448" lon="0.91727">
        <ele>217</ele>
        <time>2025-07-27T08:37:15.498Z</time>
      </trkpt>
      <trkpt lat="44.25455" lon="0.9172">
        <ele>217.4</ele>
        <time>2025-07-27T08:37:23.498Z</time>
      </trkpt>
      <trkpt lat="44.2546" lon="0.9171">
        <ele>217.3</ele>
        <time>2025-07-27T08:37:31.498Z</time>
      </trkpt>
      <trkpt lat="44.25463" lon="0.91696">
        <ele>217.1</ele>
        <time>2025-07-27T08:37:39.498Z</time>
      </trkpt>
      <trkpt lat="44.25461" lon="0.91697">
        <ele>216.6</ele>
        <time>2025-07-27T08:37:43.498Z</time>
      </trkpt>
      <trkpt lat="44.25451" lon="0.91719">
        <ele>216.7</ele>
        <time>2025-07-27T08:37:59.498Z</time>
      </trkpt>
      <trkpt lat="44.25444" lon="0.9173">
        <ele>216.8</ele>
        <time>2025-07-27T08:38:07.498Z</time>
      </trkpt>
      <trkpt lat="44.25435" lon="0.91739">
        <ele>216.4</ele>
        <time>2025-07-27T08:38:15.498Z</time>
      </trkpt>
      <trkpt lat="44.25427" lon="0.91745">
        <ele>215.9</ele>
        <time>2025-07-27T08:38:23.499Z</time>
      </trkpt>
      <trkpt lat="44.254" lon="0.91758">
        <ele>213</ele>
        <time>2025-07-27T08:38:47.498Z</time>
      </trkpt>
      <trkpt lat="44.25391" lon="0.91758">
        <ele>211.4</ele>
        <time>2025-07-27T08:38:55.498Z</time>
      </trkpt>
      <trkpt lat="44.25353" lon="0.91747">
        <ele>207.3</ele>
        <time>2025-07-27T08:39:27.498Z</time>
      </trkpt>
      <trkpt lat="44.25317" lon="0.91743">
        <ele>204.5</ele>
        <time>2025-07-27T08:39:55.498Z</time>
      </trkpt>
      <trkpt lat="44.25309" lon="0.91737">
        <ele>202.9</ele>
        <time>2025-07-27T08:40:03.498Z</time>
      </trkpt>
      <trkpt lat="44.25291" lon="0.9173">
        <ele>200.8</ele>
        <time>2025-07-27T08:40:19.498Z</time>
      </trkpt>
      <trkpt lat="44.2527" lon="0.91727">
        <ele>198.6</ele>
        <time>2025-07-27T08:40:35.498Z</time>
      </trkpt>
      <trkpt lat="44.25253" lon="0.91728">
        <ele>196.2</ele>
        <time>2025-07-27T08:40:51.498Z</time>
      </trkpt>
      <trkpt lat="44.25225" lon="0.91732">
        <ele>192.8</ele>
        <time>2025-07-27T08:41:15.498Z</time>
      </trkpt>
      <trkpt lat="44.25206" lon="0.91733">
        <ele>189.6</ele>
        <time>2025-07-27T08:41:31.498Z</time>
      </trkpt>
      <trkpt lat="44.25202" lon="0.91736">
        <ele>189.3</ele>
        <time>2025-07-27T08:41:35.498Z</time>
      </trkpt>
      <trkpt lat="44.25186" lon="0.9174">
        <ele>186.2</ele>
        <time>2025-07-27T08:41:51.498Z</time>
      </trkpt>
      <trkpt lat="44.25159" lon="0.91754">
        <ele>180.8</ele>
        <time>2025-07-27T08:42:23.498Z</time>
      </trkpt>
      <trkpt lat="44.25147" lon="0.91763">
        <ele>179</ele>
        <time>2025-07-27T08:42:35.498Z</time>
      </trkpt>
      <trkpt lat="44.25134" lon="0.91769">
        <ele>176.3</ele>
        <time>2025-07-27T08:42:51.498Z</time>
      </trkpt>
      <trkpt lat="44.25124" lon="0.91767">
        <ele>173.6</ele>
        <time>2025-07-27T08:43:07.498Z</time>
      </trkpt>
      <trkpt lat="44.25105" lon="0.91777">
        <ele>168.8</ele>
        <time>2025-07-27T08:43:31.498Z</time>
      </trkpt>
      <trkpt lat="44.25098" lon="0.91783">
        <ele>166.8</ele>
        <time>2025-07-27T08:43:39.498Z</time>
      </trkpt>
      <trkpt lat="44.25094" lon="0.9179">
        <ele>165.9</ele>
        <time>2025-07-27T08:43:47.498Z</time>
      </trkpt>
      <trkpt lat="44.25087" lon="0.91811">
        <ele>165.8</ele>
        <time>2025-07-27T08:44:07.498Z</time>
      </trkpt>
      <trkpt lat="44.25081" lon="0.91815">
        <ele>165.1</ele>
        <time>2025-07-27T08:44:23.498Z</time>
      </trkpt>
      <trkpt lat="44.25079" lon="0.91822">
        <ele>165.5</ele>
        <time>2025-07-27T08:44:31.498Z</time>
      </trkpt>
      <trkpt lat="44.25073" lon="0.91833">
        <ele>164.6</ele>
        <time>2025-07-27T08:44:39.498Z</time>
      </trkpt>
      <trkpt lat="44.25067" lon="0.9184">
        <ele>162.6</ele>
        <time>2025-07-27T08:44:47.498Z</time>
      </trkpt>
      <trkpt lat="44.25048" lon="0.91875">
        <ele>159.9</ele>
        <time>2025-07-27T08:45:27.498Z</time>
      </trkpt>
      <trkpt lat="44.25035" lon="0.9189">
        <ele>157.8</ele>
        <time>2025-07-27T08:45:43.498Z</time>
      </trkpt>
      <trkpt lat="44.25022" lon="0.91907">
        <ele>156.8</ele>
        <time>2025-07-27T08:45:59.498Z</time>
      </trkpt>
      <trkpt lat="44.25006" lon="0.91947">
        <ele>156.1</ele>
        <time>2025-07-27T08:46:31.498Z</time>
      </trkpt>
      <trkpt lat="44.24998" lon="0.9197">
        <ele>156.3</ele>
        <time>2025-07-27T08:46:43.498Z</time>
      </trkpt>
      <trkpt lat="44.24982" lon="0.92">
        <ele>154.7</ele>
        <time>2025-07-27T08:47:07.498Z</time>
      </trkpt>
      <trkpt lat="44.24974" lon="0.92008">
        <ele>152.8</ele>
        <time>2025-07-27T08:47:15.498Z</time>
      </trkpt>
      <trkpt lat="44.24962" lon="0.92029">
        <ele>152.3</ele>
        <time>2025-07-27T08:47:31.498Z</time>
      </trkpt>
      <trkpt lat="44.24944" lon="0.9205">
        <ele>151</ele>
        <time>2025-07-27T08:47:51.498Z</time>
      </trkpt>
      <trkpt lat="44.24933" lon="0.92052">
        <ele>149.1</ele>
        <time>2025-07-27T08:47:57.498Z</time>
      </trkpt>
      <trkpt lat="44.2493" lon="0.92058">
        <ele>149.4</ele>
        <time>2025-07-27T08:48:01.498Z</time>
      </trkpt>
      <trkpt lat="44.24923" lon="0.92065">
        <ele>149.6</ele>
        <time>2025-07-27T08:48:09.498Z</time>
      </trkpt>
      <trkpt lat="44.24907" lon="0.92076">
        <ele>148.8</ele>
        <time>2025-07-27T08:48:25.498Z</time>
      </trkpt>
      <trkpt lat="44.24898" lon="0.9208">
        <ele>148</ele>
        <time>2025-07-27T08:48:33.498Z</time>
      </trkpt>
      <trkpt lat="44.24862" lon="0.92083">
        <ele>145</ele>
        <time>2025-07-27T08:49:05.498Z</time>
      </trkpt>
      <trkpt lat="44.24847" lon="0.92088">
        <ele>143.7</ele>
        <time>2025-07-27T08:49:21.498Z</time>
      </trkpt>
      <trkpt lat="44.2484" lon="0.92092">
        <ele>143.5</ele>
        <time>2025-07-27T08:49:29.498Z</time>
      </trkpt>
      <trkpt lat="44.24838" lon="0.92095">
        <ele>143.8</ele>
        <time>2025-07-27T08:49:33.498Z</time>
      </trkpt>
      <trkpt lat="44.24826" lon="0.92105">
        <ele>143.7</ele>
        <time>2025-07-27T08:49:45.498Z</time>
      </trkpt>
      <trkpt lat="44.24805" lon="0.92114">
        <ele>141.5</ele>
        <time>2025-07-27T08:50:01.498Z</time>
      </trkpt>
      <trkpt lat="44.24789" lon="0.92126">
        <ele>140.9</ele>
        <time>2025-07-27T08:50:17.498Z</time>
      </trkpt>
      <trkpt lat="44.24779" lon="0.92139">
        <ele>141.1</ele>
        <time>2025-07-27T08:50:33.498Z</time>
      </trkpt>
      <trkpt lat="44.2476" lon="0.92156">
        <ele>138.7</ele>
        <time>2025-07-27T08:50:49.498Z</time>
      </trkpt>
      <trkpt lat="44.2474" lon="0.92187">
        <ele>137.5</ele>
        <time>2025-07-27T08:51:13.498Z</time>
      </trkpt>
      <trkpt lat="44.24727" lon="0.92204">
        <ele>135.7</ele>
        <time>2025-07-27T08:51:27.499Z</time>
      </trkpt>
      <trkpt lat="44.24714" lon="0.9223">
        <ele>135.3</ele>
        <time>2025-07-27T08:51:47.498Z</time>
      </trkpt>
      <trkpt lat="44.24712" lon="0.92241">
        <ele>135</ele>
        <time>2025-07-27T08:51:55.498Z</time>
      </trkpt>
      <trkpt lat="44.24692" lon="0.92281">
        <ele>130.8</ele>
        <time>2025-07-27T08:52:27.498Z</time>
      </trkpt>
      <trkpt lat="44.24687" lon="0.92286">
        <ele>130.3</ele>
        <time>2025-07-27T08:52:43.498Z</time>
      </trkpt>
      <trkpt lat="44.24684" lon="0.92294">
        <ele>130</ele>
        <time>2025-07-27T08:53:27.498Z</time>
      </trkpt>
      <trkpt lat="44.24671" lon="0.9232">
        <ele>127.1</ele>
        <time>2025-07-27T08:54:07.498Z</time>
      </trkpt>
      <trkpt lat="44.24649" lon="0.92357">
        <ele>123.9</ele>
        <time>2025-07-27T08:54:39.498Z</time>
      </trkpt>
      <trkpt lat="44.24636" lon="0.92386">
        <ele>122.9</ele>
        <time>2025-07-27T08:55:27.498Z</time>
      </trkpt>
      <trkpt lat="44.24623" lon="0.92394">
        <ele>122.2</ele>
        <time>2025-07-27T08:55:39.498Z</time>
      </trkpt>
      <trkpt lat="44.24618" lon="0.92404">
        <ele>121.6</ele>
        <time>2025-07-27T08:55:47.498Z</time>
      </trkpt>
      <trkpt lat="44.24599" lon="0.92455">
        <ele>122</ele>
        <time>2025-07-27T08:56:19.498Z</time>
      </trkpt>
      <trkpt lat="44.24561" lon="0.92521">
        <ele>126.9</ele>
        <time>2025-07-27T08:57:07.498Z</time>
      </trkpt>
      <trkpt lat="44.24546" lon="0.92555">
        <ele>131.2</ele>
        <time>2025-07-27T08:57:35.498Z</time>
      </trkpt>
      <trkpt lat="44.24478" lon="0.92621">
        <ele>133.4</ele>
        <time>2025-07-27T08:58:39.498Z</time>
      </trkpt>
      <trkpt lat="44.2447" lon="0.92627">
        <ele>133.1</ele>
        <time>2025-07-27T08:58:47.498Z</time>
      </trkpt>
      <trkpt lat="44.24466" lon="0.92627">
        <ele>133</ele>
        <time>2025-07-27T08:58:51.498Z</time>
      </trkpt>
      <trkpt lat="44.24463" lon="0.92633">
        <ele>133.1</ele>
        <time>2025-07-27T08:59:07.498Z</time>
      </trkpt>
      <trkpt lat="44.24461" lon="0.92647">
        <ele>133.9</ele>
        <time>2025-07-27T08:59:23.498Z</time>
      </trkpt>
      <trkpt lat="44.24454" lon="0.92676">
        <ele>135.1</ele>
        <time>2025-07-27T08:59:47.498Z</time>
      </trkpt>
      <trkpt lat="44.24446" lon="0.92709">
        <ele>136.6</ele>
        <time>2025-07-27T09:00:11.498Z</time>
      </trkpt>
      <trkpt lat="44.24439" lon="0.92718">
        <ele>136.6</ele>
        <time>2025-07-27T09:00:19.498Z</time>
      </trkpt>
      <trkpt lat="44.2443" lon="0.92765">
        <ele>138.9</ele>
        <time>2025-07-27T09:00:51.498Z</time>
      </trkpt>
      <trkpt lat="44.24425" lon="0.92796">
        <ele>139.7</ele>
        <time>2025-07-27T09:01:11.498Z</time>
      </trkpt>
      <trkpt lat="44.24425" lon="0.92808">
        <ele>140.2</ele>
        <time>2025-07-27T09:01:27.498Z</time>
      </trkpt>
      <trkpt lat="44.2442" lon="0.92823">
        <ele>140.6</ele>
        <time>2025-07-27T09:01:39.498Z</time>
      </trkpt>
      <trkpt lat="44.24418" lon="0.92835">
        <ele>141.5</ele>
        <time>2025-07-27T09:01:47.498Z</time>
      </trkpt>
      <trkpt lat="44.2441" lon="0.92853">
        <ele>143.2</ele>
        <time>2025-07-27T09:02:19.498Z</time>
      </trkpt>
      <trkpt lat="44.24397" lon="0.92902">
        <ele>147.3</ele>
        <time>2025-07-27T09:02:55.498Z</time>
      </trkpt>
      <trkpt lat="44.24385" lon="0.92924">
        <ele>148.4</ele>
        <time>2025-07-27T09:03:11.498Z</time>
      </trkpt>
      <trkpt lat="44.24382" lon="0.92935">
        <ele>149.1</ele>
        <time>2025-07-27T09:03:19.498Z</time>
      </trkpt>
      <trkpt lat="44.24379" lon="0.92941">
        <ele>149.2</ele>
        <time>2025-07-27T09:03:23.498Z</time>
      </trkpt>
      <trkpt lat="44.24375" lon="0.92949">
        <ele>149.4</ele>
        <time>2025-07-27T09:03:29.498Z</time>
      </trkpt>
      <trkpt lat="44.2437" lon="0.92957">
        <ele>149.4</ele>
        <time>2025-07-27T09:03:32.498Z</time>
      </trkpt>
      <trkpt lat="44.24369" lon="0.92965">
        <ele>149.8</ele>
        <time>2025-07-27T09:03:36.498Z</time>
      </trkpt>
      <trkpt lat="44.24364" lon="0.92983">
        <ele>150.6</ele>
        <time>2025-07-27T09:04:00.498Z</time>
      </trkpt>
      <trkpt lat="44.24358" lon="0.92995">
        <ele>151.2</ele>
        <time>2025-07-27T09:04:08.498Z</time>
      </trkpt>
      <trkpt lat="44.24356" lon="0.93008">
        <ele>152</ele>
        <time>2025-07-27T09:04:16.498Z</time>
      </trkpt>
      <trkpt lat="44.24354" lon="0.93011">
        <ele>151.9</ele>
        <time>2025-07-27T09:04:20.498Z</time>
      </trkpt>
      <trkpt lat="44.24353" lon="0.93021">
        <ele>152.4</ele>
        <time>2025-07-27T09:04:28.498Z</time>
      </trkpt>
      <trkpt lat="44.24345" lon="0.93041">
        <ele>152.7</ele>
        <time>2025-07-27T09:04:44.498Z</time>
      </trkpt>
      <trkpt lat="44.24343" lon="0.93059">
        <ele>153.7</ele>
        <time>2025-07-27T09:05:00.498Z</time>
      </trkpt>
      <trkpt lat="44.24328" lon="0.93092">
        <ele>155.7</ele>
        <time>2025-07-27T09:05:28.498Z</time>
      </trkpt>
      <trkpt lat="44.24327" lon="0.93101">
        <ele>156.4</ele>
        <time>2025-07-27T09:05:36.498Z</time>
      </trkpt>
      <trkpt lat="44.24316" lon="0.93117">
        <ele>156.9</ele>
        <time>2025-07-27T09:05:52.498Z</time>
      </trkpt>
      <trkpt lat="44.24307" lon="0.93136">
        <ele>158</ele>
        <time>2025-07-27T09:06:16.498Z</time>
      </trkpt>
      <trkpt lat="44.24302" lon="0.93146">
        <ele>159.1</ele>
        <time>2025-07-27T09:06:24.498Z</time>
      </trkpt>
      <trkpt lat="44.24299" lon="0.93155">
        <ele>160.6</ele>
        <time>2025-07-27T09:06:32.498Z</time>
      </trkpt>
      <trkpt lat="44.24289" lon="0.93173">
        <ele>161.8</ele>
        <time>2025-07-27T09:06:48.498Z</time>
      </trkpt>
      <trkpt lat="44.24283" lon="0.93196">
        <ele>162.4</ele>
        <time>2025-07-27T09:07:11.498Z</time>
      </trkpt>
      <trkpt lat="44.24279" lon="0.93205">
        <ele>162.8</ele>
        <time>2025-07-27T09:07:25.498Z</time>
      </trkpt>
      <trkpt lat="44.24278" lon="0.93212">
        <ele>163.6</ele>
        <time>2025-07-27T09:07:59.498Z</time>
      </trkpt>
      <trkpt lat="44.24276" lon="0.93221">
        <ele>164.7</ele>
        <time>2025-07-27T09:11:03.498Z</time>
      </trkpt>
      <trkpt lat="44.24274" lon="0.93243">
        <ele>166.8</ele>
        <time>2025-07-27T09:11:19.498Z</time>
      </trkpt>
      <trkpt lat="44.24275" lon="0.93255">
        <ele>168.2</ele>
        <time>2025-07-27T09:11:27.498Z</time>
      </trkpt>
      <trkpt lat="44.24262" lon="0.9329">
        <ele>169.9</ele>
        <time>2025-07-27T09:11:57.498Z</time>
      </trkpt>
      <trkpt lat="44.24252" lon="0.93321">
        <ele>171.7</ele>
        <time>2025-07-27T09:12:21.498Z</time>
      </trkpt>
      <trkpt lat="44.24242" lon="0.93341">
        <ele>172.6</ele>
        <time>2025-07-27T09:12:37.498Z</time>
      </trkpt>
      <trkpt lat="44.24225" lon="0.93396">
        <ele>177.2</ele>
        <time>2025-07-27T09:13:29.498Z</time>
      </trkpt>
      <trkpt lat="44.24223" lon="0.93404">
        <ele>177.7</ele>
        <time>2025-07-27T09:13:35.498Z</time>
      </trkpt>
      <trkpt lat="44.2422" lon="0.93413">
        <ele>178.5</ele>
        <time>2025-07-27T09:13:43.498Z</time>
      </trkpt>
      <trkpt lat="44.2422" lon="0.93431">
        <ele>180.9</ele>
        <time>2025-07-27T09:13:59.498Z</time>
      </trkpt>
      <trkpt lat="44.24218" lon="0.93437">
        <ele>181.6</ele>
        <time>2025-07-27T09:14:03.498Z</time>
      </trkpt>
      <trkpt lat="44.2421" lon="0.93441">
        <ele>181.7</ele>
        <time>2025-07-27T09:14:11.498Z</time>
      </trkpt>
      <trkpt lat="44.24204" lon="0.93449">
        <ele>182.3</ele>
        <time>2025-07-27T09:14:17.498Z</time>
      </trkpt>
      <trkpt lat="44.24201" lon="0.93449">
        <ele>182.1</ele>
        <time>2025-07-27T09:14:19.498Z</time>
      </trkpt>
      <trkpt lat="44.24197" lon="0.93446">
        <ele>181.3</ele>
        <time>2025-07-27T09:14:23.498Z</time>
      </trkpt>
      <trkpt lat="44.24195" lon="0.93446">
        <ele>181.2</ele>
        <time>2025-07-27T09:14:25.498Z</time>
      </trkpt>
      <trkpt lat="44.24189" lon="0.93442">
        <ele>181.2</ele>
        <time>2025-07-27T09:14:29.498Z</time>
      </trkpt>
      <trkpt lat="44.24184" lon="0.93438">
        <ele>181</ele>
        <time>2025-07-27T09:14:37.498Z</time>
      </trkpt>
      <trkpt lat="44.24182" lon="0.93435">
        <ele>180.9</ele>
        <time>2025-07-27T09:14:41.498Z</time>
      </trkpt>
      <trkpt lat="44.24175" lon="0.9343">
        <ele>180.8</ele>
        <time>2025-07-27T09:14:53.498Z</time>
      </trkpt>
      <trkpt lat="44.24169" lon="0.93428">
        <ele>181</ele>
        <time>2025-07-27T09:15:53.498Z</time>
      </trkpt>
      <trkpt lat="44.24169" lon="0.93427">
        <ele>180.9</ele>
        <time>2025-07-27T09:16:25.498Z</time>
      </trkpt>
      <trkpt lat="44.24156" lon="0.9342">
        <ele>183.8</ele>
        <time>2025-07-27T09:16:49.498Z</time>
      </trkpt>
      <trkpt lat="44.24143" lon="0.93407">
        <ele>186</ele>
        <time>2025-07-27T09:17:05.498Z</time>
      </trkpt>
      <trkpt lat="44.24135" lon="0.93385">
        <ele>185</ele>
        <time>2025-07-27T09:17:21.498Z</time>
      </trkpt>
      <trkpt lat="44.24122" lon="0.93367">
        <ele>185.9</ele>
        <time>2025-07-27T09:17:41.498Z</time>
      </trkpt>
      <trkpt lat="44.24098" lon="0.93359">
        <ele>189.3</ele>
        <time>2025-07-27T09:18:13.498Z</time>
      </trkpt>
      <trkpt lat="44.24095" lon="0.93353">
        <ele>189.6</ele>
        <time>2025-07-27T09:21:37.498Z</time>
      </trkpt>
      <trkpt lat="44.24094" lon="0.93324">
        <ele>189.7</ele>
        <time>2025-07-27T09:22:33.498Z</time>
      </trkpt>
      <trkpt lat="44.24099" lon="0.93304">
        <ele>189.3</ele>
        <time>2025-07-27T09:22:49.498Z</time>
      </trkpt>
      <trkpt lat="44.24103" lon="0.93296">
        <ele>189.5</ele>
        <time>2025-07-27T09:22:57.498Z</time>
      </trkpt>
      <trkpt lat="44.24117" lon="0.9327">
        <ele>190.5</ele>
        <time>2025-07-27T09:23:17.498Z</time>
      </trkpt>
      <trkpt lat="44.24126" lon="0.93252">
        <ele>189.1</ele>
        <time>2025-07-27T09:23:33.498Z</time>
      </trkpt>
      <trkpt lat="44.24136" lon="0.93216">
        <ele>192.3</ele>
        <time>2025-07-27T09:23:57.498Z</time>
      </trkpt>
      <trkpt lat="44.24146" lon="0.93196">
        <ele>191.4</ele>
        <time>2025-07-27T09:24:13.498Z</time>
      </trkpt>
      <trkpt lat="44.24153" lon="0.93172">
        <ele>190.5</ele>
        <time>2025-07-27T09:24:29.498Z</time>
      </trkpt>
      <trkpt lat="44.24158" lon="0.93162">
        <ele>190.3</ele>
        <time>2025-07-27T09:24:37.498Z</time>
      </trkpt>
      <trkpt lat="44.24161" lon="0.93146">
        <ele>192.9</ele>
        <time>2025-07-27T09:24:49.498Z</time>
      </trkpt>
      <trkpt lat="44.24159" lon="0.93142">
        <ele>194</ele>
        <time>2025-07-27T09:24:53.498Z</time>
      </trkpt>
      <trkpt lat="44.24117" lon="0.93109">
        <ele>197.6</ele>
        <time>2025-07-27T09:25:41.498Z</time>
      </trkpt>
      <trkpt lat="44.24106" lon="0.93103">
        <ele>198.4</ele>
        <time>2025-07-27T09:25:53.498Z</time>
      </trkpt>
      <trkpt lat="44.24099" lon="0.93096">
        <ele>198.9</ele>
        <time>2025-07-27T09:26:01.498Z</time>
      </trkpt>
      <trkpt lat="44.24084" lon="0.9309">
        <ele>200</ele>
        <time>2025-07-27T09:26:17.498Z</time>
      </trkpt>
      <trkpt lat="44.24078" lon="0.93093">
        <ele>200.7</ele>
        <time>2025-07-27T09:26:25.498Z</time>
      </trkpt>
      <trkpt lat="44.24071" lon="0.93115">
        <ele>201.1</ele>
        <time>2025-07-27T09:26:41.498Z</time>
      </trkpt>
      <trkpt lat="44.24066" lon="0.93124">
        <ele>201.4</ele>
        <time>2025-07-27T09:26:49.498Z</time>
      </trkpt>
      <trkpt lat="44.24061" lon="0.93122">
        <ele>202</ele>
        <time>2025-07-27T09:26:57.498Z</time>
      </trkpt>
      <trkpt lat="44.24033" lon="0.93102">
        <ele>204.9</ele>
        <time>2025-07-27T09:27:45.498Z</time>
      </trkpt>
      <trkpt lat="44.2403" lon="0.93105">
        <ele>205.1</ele>
        <time>2025-07-27T09:28:17.498Z</time>
      </trkpt>
      <trkpt lat="44.24017" lon="0.93088">
        <ele>205.2</ele>
        <time>2025-07-27T09:28:49.498Z</time>
      </trkpt>
      <trkpt lat="44.23999" lon="0.93079">
        <ele>203.8</ele>
        <time>2025-07-27T09:29:13.498Z</time>
      </trkpt>
      <trkpt lat="44.23997" lon="0.93073">
        <ele>203.5</ele>
        <time>2025-07-27T09:29:33.498Z</time>
      </trkpt>
      <trkpt lat="44.23982" lon="0.93053">
        <ele>201.5</ele>
        <time>2025-07-27T09:30:01.498Z</time>
      </trkpt>
      <trkpt lat="44.23979" lon="0.93048">
        <ele>200.7</ele>
        <time>2025-07-27T09:30:09.498Z</time>
      </trkpt>
      <trkpt lat="44.23967" lon="0.93033">
        <ele>198.7</ele>
        <time>2025-07-27T09:30:25.498Z</time>
      </trkpt>
      <trkpt lat="44.23955" lon="0.93013">
        <ele>197.2</ele>
        <time>2025-07-27T09:30:41.498Z</time>
      </trkpt>
      <trkpt lat="44.23951" lon="0.93">
        <ele>196</ele>
        <time>2025-07-27T09:30:53.498Z</time>
      </trkpt>
      <trkpt lat="44.23945" lon="0.92997">
        <ele>195.7</ele>
        <time>2025-07-27T09:30:59.498Z</time>
      </trkpt>
      <trkpt lat="44.23926" lon="0.93009">
        <ele>197.2</ele>
        <time>2025-07-27T09:31:19.498Z</time>
      </trkpt>
      <trkpt lat="44.23918" lon="0.93011">
        <ele>197.5</ele>
        <time>2025-07-27T09:31:27.498Z</time>
      </trkpt>
      <trkpt lat="44.23911" lon="0.93016">
        <ele>198</ele>
        <time>2025-07-27T09:31:35.498Z</time>
      </trkpt>
      <trkpt lat="44.23902" lon="0.93018">
        <ele>198</ele>
        <time>2025-07-27T09:31:43.498Z</time>
      </trkpt>
      <trkpt lat="44.23883" lon="0.93029">
        <ele>199.3</ele>
        <time>2025-07-27T09:31:59.498Z</time>
      </trkpt>
      <trkpt lat="44.23838" lon="0.93051">
        <ele>203.7</ele>
        <time>2025-07-27T09:32:39.498Z</time>
      </trkpt>
      <trkpt lat="44.23783" lon="0.93065">
        <ele>210.3</ele>
        <time>2025-07-27T09:33:27.498Z</time>
      </trkpt>
      <trkpt lat="44.23735" lon="0.93082">
        <ele>214.7</ele>
        <time>2025-07-27T09:34:11.498Z</time>
      </trkpt>
      <trkpt lat="44.23727" lon="0.93082">
        <ele>215.6</ele>
        <time>2025-07-27T09:34:19.498Z</time>
      </trkpt>
      <trkpt lat="44.23718" lon="0.93088">
        <ele>216.6</ele>
        <time>2025-07-27T09:34:27.498Z</time>
      </trkpt>
      <trkpt lat="44.23692" lon="0.93098">
        <ele>219.2</ele>
        <time>2025-07-27T09:34:51.498Z</time>
      </trkpt>
      <trkpt lat="44.23684" lon="0.93103">
        <ele>219.8</ele>
        <time>2025-07-27T09:34:59.498Z</time>
      </trkpt>
      <trkpt lat="44.23677" lon="0.93112">
        <ele>220.3</ele>
        <time>2025-07-27T09:35:07.498Z</time>
      </trkpt>
      <trkpt lat="44.23672" lon="0.93122">
        <ele>220.7</ele>
        <time>2025-07-27T09:35:15.498Z</time>
      </trkpt>
      <trkpt lat="44.23664" lon="0.93145">
        <ele>221.1</ele>
        <time>2025-07-27T09:35:31.498Z</time>
      </trkpt>
      <trkpt lat="44.23659" lon="0.93169">
        <ele>221.3</ele>
        <time>2025-07-27T09:35:47.498Z</time>
      </trkpt>
      <trkpt lat="44.23645" lon="0.93203">
        <ele>221.7</ele>
        <time>2025-07-27T09:36:11.498Z</time>
      </trkpt>
      <trkpt lat="44.23629" lon="0.93218">
        <ele>222</ele>
        <time>2025-07-27T09:36:27.498Z</time>
      </trkpt>
      <trkpt lat="44.2362" lon="0.93221">
        <ele>222</ele>
        <time>2025-07-27T09:36:35.498Z</time>
      </trkpt>
      <trkpt lat="44.23611" lon="0.93217">
        <ele>222</ele>
        <time>2025-07-27T09:36:43.498Z</time>
      </trkpt>
      <trkpt lat="44.23598" lon="0.9321">
        <ele>222.5</ele>
        <time>2025-07-27T09:36:59.498Z</time>
      </trkpt>
      <trkpt lat="44.23588" lon="0.93207">
        <ele>222.9</ele>
        <time>2025-07-27T09:37:07.498Z</time>
      </trkpt>
      <trkpt lat="44.23578" lon="0.93202">
        <ele>223</ele>
        <time>2025-07-27T09:37:15.498Z</time>
      </trkpt>
      <trkpt lat="44.23568" lon="0.93199">
        <ele>223</ele>
        <time>2025-07-27T09:37:23.498Z</time>
      </trkpt>
      <trkpt lat="44.23534" lon="0.93184">
        <ele>222.7</ele>
        <time>2025-07-27T09:37:55.498Z</time>
      </trkpt>
      <trkpt lat="44.23521" lon="0.93174">
        <ele>221.9</ele>
        <time>2025-07-27T09:38:11.498Z</time>
      </trkpt>
      <trkpt lat="44.23516" lon="0.93172">
        <ele>221.7</ele>
        <time>2025-07-27T09:38:43.498Z</time>
      </trkpt>
      <trkpt lat="44.23491" lon="0.93212">
        <ele>221</ele>
        <time>2025-07-27T09:41:39.498Z</time>
      </trkpt>
      <trkpt lat="44.23476" lon="0.93236">
        <ele>220.6</ele>
        <time>2025-07-27T09:42:31.498Z</time>
      </trkpt>
      <trkpt lat="44.23468" lon="0.93263">
        <ele>219.9</ele>
        <time>2025-07-27T09:42:47.498Z</time>
      </trkpt>
      <trkpt lat="44.23467" lon="0.93276">
        <ele>219.8</ele>
        <time>2025-07-27T09:42:55.498Z</time>
      </trkpt>
      <trkpt lat="44.23465" lon="0.93274">
        <ele>219.7</ele>
        <time>2025-07-27T09:43:03.498Z</time>
      </trkpt>
      <trkpt lat="44.23461" lon="0.93336">
        <ele>217.6</ele>
        <time>2025-07-27T09:43:51.498Z</time>
      </trkpt>
      <trkpt lat="44.23467" lon="0.93359">
        <ele>217.1</ele>
        <time>2025-07-27T09:44:07.498Z</time>
      </trkpt>
      <trkpt lat="44.23469" lon="0.93376">
        <ele>216.8</ele>
        <time>2025-07-27T09:44:19.498Z</time>
      </trkpt>
      <trkpt lat="44.2347" lon="0.93379">
        <ele>217</ele>
        <time>2025-07-27T10:29:57.191Z</time>
      </trkpt>
      <trkpt lat="44.23477" lon="0.93386">
        <ele>217.3</ele>
        <time>2025-07-27T10:34:13.191Z</time>
      </trkpt>
      <trkpt lat="44.23482" lon="0.93387">
        <ele>217.4</ele>
        <time>2025-07-27T10:34:41.191Z</time>
      </trkpt>
      <trkpt lat="44.23496" lon="0.93422">
        <ele>215.8</ele>
        <time>2025-07-27T10:35:13.191Z</time>
      </trkpt>
      <trkpt lat="44.23518" lon="0.93461">
        <ele>213.2</ele>
        <time>2025-07-27T10:35:53.191Z</time>
      </trkpt>
      <trkpt lat="44.23534" lon="0.93475">
        <ele>213.9</ele>
        <time>2025-07-27T10:36:09.191Z</time>
      </trkpt>
      <trkpt lat="44.23548" lon="0.9348">
        <ele>213.8</ele>
        <time>2025-07-27T10:36:25.191Z</time>
      </trkpt>
      <trkpt lat="44.23558" lon="0.93474">
        <ele>214.9</ele>
        <time>2025-07-27T10:36:41.191Z</time>
      </trkpt>
      <trkpt lat="44.23561" lon="0.93471">
        <ele>215.2</ele>
        <time>2025-07-27T10:36:45.191Z</time>
      </trkpt>
      <trkpt lat="44.23569" lon="0.9347">
        <ele>215.5</ele>
        <time>2025-07-27T10:36:53.191Z</time>
      </trkpt>
      <trkpt lat="44.23573" lon="0.93471">
        <ele>215.6</ele>
        <time>2025-07-27T10:37:09.191Z</time>
      </trkpt>
      <trkpt lat="44.23577" lon="0.93476">
        <ele>215.5</ele>
        <time>2025-07-27T10:37:17.191Z</time>
      </trkpt>
      <trkpt lat="44.23583" lon="0.93518">
        <ele>214.9</ele>
        <time>2025-07-27T10:37:41.191Z</time>
      </trkpt>
      <trkpt lat="44.23583" lon="0.93538">
        <ele>215.4</ele>
        <time>2025-07-27T10:37:57.191Z</time>
      </trkpt>
      <trkpt lat="44.23587" lon="0.93548">
        <ele>216.1</ele>
        <time>2025-07-27T10:38:05.191Z</time>
      </trkpt>
      <trkpt lat="44.23637" lon="0.93595">
        <ele>219.9</ele>
        <time>2025-07-27T10:38:57.191Z</time>
      </trkpt>
      <trkpt lat="44.2364" lon="0.93595">
        <ele>219.9</ele>
        <time>2025-07-27T10:39:01.191Z</time>
      </trkpt>
      <trkpt lat="44.23642" lon="0.93587">
        <ele>219.9</ele>
        <time>2025-07-27T10:39:09.191Z</time>
      </trkpt>
      <trkpt lat="44.23641" lon="0.93573">
        <ele>219.9</ele>
        <time>2025-07-27T10:39:17.191Z</time>
      </trkpt>
      <trkpt lat="44.23643" lon="0.93558">
        <ele>219.9</ele>
        <time>2025-07-27T10:39:25.191Z</time>
      </trkpt>
      <trkpt lat="44.23647" lon="0.93555">
        <ele>219.7</ele>
        <time>2025-07-27T10:39:29.191Z</time>
      </trkpt>
      <trkpt lat="44.23728" lon="0.9356">
        <ele>210.3</ele>
        <time>2025-07-27T10:41:05.191Z</time>
      </trkpt>
      <trkpt lat="44.23738" lon="0.93562">
        <ele>209.2</ele>
        <time>2025-07-27T10:41:13.191Z</time>
      </trkpt>
      <trkpt lat="44.23777" lon="0.93562">
        <ele>206.8</ele>
        <time>2025-07-27T10:41:45.191Z</time>
      </trkpt>
      <trkpt lat="44.23796" lon="0.9356">
        <ele>206.3</ele>
        <time>2025-07-27T10:42:01.191Z</time>
      </trkpt>
      <trkpt lat="44.23816" lon="0.93562">
        <ele>205.7</ele>
        <time>2025-07-27T10:42:17.191Z</time>
      </trkpt>
      <trkpt lat="44.23825" lon="0.93564">
        <ele>205.5</ele>
        <time>2025-07-27T10:42:25.191Z</time>
      </trkpt>
      <trkpt lat="44.23844" lon="0.93565">
        <ele>205.1</ele>
        <time>2025-07-27T10:42:57.191Z</time>
      </trkpt>
      <trkpt lat="44.2385" lon="0.93564">
        <ele>204.9</ele>
        <time>2025-07-27T10:43:05.191Z</time>
      </trkpt>
      <trkpt lat="44.23853" lon="0.93565">
        <ele>204.9</ele>
        <time>2025-07-27T10:43:09.191Z</time>
      </trkpt>
      <trkpt lat="44.23863" lon="0.93566">
        <ele>204.8</ele>
        <time>2025-07-27T10:43:29.191Z</time>
      </trkpt>
      <trkpt lat="44.23874" lon="0.93568">
        <ele>205.1</ele>
        <time>2025-07-27T10:44:01.191Z</time>
      </trkpt>
      <trkpt lat="44.23885" lon="0.93571">
        <ele>205.6</ele>
        <time>2025-07-27T10:44:33.191Z</time>
      </trkpt>
      <trkpt lat="44.23906" lon="0.93585">
        <ele>206.5</ele>
        <time>2025-07-27T10:45:05.191Z</time>
      </trkpt>
      <trkpt lat="44.23918" lon="0.9359">
        <ele>206.5</ele>
        <time>2025-07-27T10:45:21.191Z</time>
      </trkpt>
      <trkpt lat="44.2394" lon="0.93603">
        <ele>207.4</ele>
        <time>2025-07-27T10:45:53.191Z</time>
      </trkpt>
      <trkpt lat="44.23982" lon="0.93635">
        <ele>207.2</ele>
        <time>2025-07-27T10:46:41.191Z</time>
      </trkpt>
      <trkpt lat="44.24001" lon="0.93654">
        <ele>205.3</ele>
        <time>2025-07-27T10:47:05.191Z</time>
      </trkpt>
      <trkpt lat="44.2401" lon="0.93659">
        <ele>204.3</ele>
        <time>2025-07-27T10:47:13.191Z</time>
      </trkpt>
      <trkpt lat="44.2402" lon="0.93659">
        <ele>203.4</ele>
        <time>2025-07-27T10:47:21.191Z</time>
      </trkpt>
      <trkpt lat="44.24064" lon="0.93625">
        <ele>200.9</ele>
        <time>2025-07-27T10:48:09.191Z</time>
      </trkpt>
      <trkpt lat="44.2408" lon="0.93612">
        <ele>200.3</ele>
        <time>2025-07-27T10:48:25.191Z</time>
      </trkpt>
      <trkpt lat="44.24088" lon="0.93606">
        <ele>199.5</ele>
        <time>2025-07-27T10:48:33.191Z</time>
      </trkpt>
      <trkpt lat="44.241" lon="0.93593">
        <ele>198.2</ele>
        <time>2025-07-27T10:48:49.191Z</time>
      </trkpt>
      <trkpt lat="44.24109" lon="0.93591">
        <ele>197.3</ele>
        <time>2025-07-27T10:49:01.191Z</time>
      </trkpt>
      <trkpt lat="44.24114" lon="0.93583">
        <ele>196.8</ele>
        <time>2025-07-27T10:49:09.191Z</time>
      </trkpt>
      <trkpt lat="44.24126" lon="0.9356">
        <ele>195.5</ele>
        <time>2025-07-27T10:49:29.191Z</time>
      </trkpt>
      <trkpt lat="44.24136" lon="0.93539">
        <ele>194.9</ele>
        <time>2025-07-27T10:49:49.191Z</time>
      </trkpt>
      <trkpt lat="44.24144" lon="0.93521">
        <ele>193.7</ele>
        <time>2025-07-27T10:50:03.191Z</time>
      </trkpt>
      <trkpt lat="44.24151" lon="0.93522">
        <ele>192.2</ele>
        <time>2025-07-27T10:50:11.191Z</time>
      </trkpt>
      <trkpt lat="44.24167" lon="0.93542">
        <ele>191.6</ele>
        <time>2025-07-27T10:50:27.191Z</time>
      </trkpt>
      <trkpt lat="44.24174" lon="0.93545">
        <ele>192.7</ele>
        <time>2025-07-27T10:50:35.191Z</time>
      </trkpt>
      <trkpt lat="44.2418" lon="0.93544">
        <ele>193</ele>
        <time>2025-07-27T10:50:43.191Z</time>
      </trkpt>
      <trkpt lat="44.24196" lon="0.93532">
        <ele>193.5</ele>
        <time>2025-07-27T10:50:59.191Z</time>
      </trkpt>
      <trkpt lat="44.24202" lon="0.93524">
        <ele>193.3</ele>
        <time>2025-07-27T10:51:07.191Z</time>
      </trkpt>
      <trkpt lat="44.24207" lon="0.93524">
        <ele>193.8</ele>
        <time>2025-07-27T10:51:11.191Z</time>
      </trkpt>
      <trkpt lat="44.24226" lon="0.93548">
        <ele>198.3</ele>
        <time>2025-07-27T10:51:35.191Z</time>
      </trkpt>
      <trkpt lat="44.24235" lon="0.93562">
        <ele>201.2</ele>
        <time>2025-07-27T10:51:51.191Z</time>
      </trkpt>
      <trkpt lat="44.24272" lon="0.93608">
        <ele>207.5</ele>
        <time>2025-07-27T10:52:51.191Z</time>
      </trkpt>
      <trkpt lat="44.2428" lon="0.93614">
        <ele>208.5</ele>
        <time>2025-07-27T10:53:03.191Z</time>
      </trkpt>
      <trkpt lat="44.24293" lon="0.93636">
        <ele>211.4</ele>
        <time>2025-07-27T10:53:27.191Z</time>
      </trkpt>
      <trkpt lat="44.24297" lon="0.93639">
        <ele>212.1</ele>
        <time>2025-07-27T10:53:31.191Z</time>
      </trkpt>
      <trkpt lat="44.24304" lon="0.93654">
        <ele>213.9</ele>
        <time>2025-07-27T10:53:47.191Z</time>
      </trkpt>
      <trkpt lat="44.24316" lon="0.93667">
        <ele>215.8</ele>
        <time>2025-07-27T10:54:03.191Z</time>
      </trkpt>
      <trkpt lat="44.24326" lon="0.93683">
        <ele>217</ele>
        <time>2025-07-27T10:54:19.191Z</time>
      </trkpt>
      <trkpt lat="44.24355" lon="0.93719">
        <ele>219</ele>
        <time>2025-07-27T10:55:07.191Z</time>
      </trkpt>
      <trkpt lat="44.2436" lon="0.93718">
        <ele>219</ele>
        <time>2025-07-27T10:56:45.191Z</time>
      </trkpt>
      <trkpt lat="44.24387" lon="0.93684">
        <ele>218.4</ele>
        <time>2025-07-27T10:57:17.191Z</time>
      </trkpt>
      <trkpt lat="44.24394" lon="0.93679">
        <ele>218.4</ele>
        <time>2025-07-27T10:57:25.191Z</time>
      </trkpt>
      <trkpt lat="44.24402" lon="0.93679">
        <ele>218.1</ele>
        <time>2025-07-27T10:57:33.191Z</time>
      </trkpt>
      <trkpt lat="44.2441" lon="0.93682">
        <ele>217.7</ele>
        <time>2025-07-27T10:57:41.191Z</time>
      </trkpt>
      <trkpt lat="44.24423" lon="0.93693">
        <ele>216.6</ele>
        <time>2025-07-27T10:57:57.191Z</time>
      </trkpt>
      <trkpt lat="44.24427" lon="0.93695">
        <ele>216.2</ele>
        <time>2025-07-27T10:58:21.191Z</time>
      </trkpt>
      <trkpt lat="44.24435" lon="0.93697">
        <ele>215.5</ele>
        <time>2025-07-27T10:58:29.191Z</time>
      </trkpt>
      <trkpt lat="44.246" lon="0.93799">
        <ele>194.4</ele>
        <time>2025-07-27T11:01:09.191Z</time>
      </trkpt>
      <trkpt lat="44.24626" lon="0.93811">
        <ele>193.4</ele>
        <time>2025-07-27T11:01:33.191Z</time>
      </trkpt>
      <trkpt lat="44.24635" lon="0.93812">
        <ele>193</ele>
        <time>2025-07-27T11:01:41.191Z</time>
      </trkpt>
      <trkpt lat="44.24651" lon="0.93819">
        <ele>191.8</ele>
        <time>2025-07-27T11:01:57.191Z</time>
      </trkpt>
      <trkpt lat="44.2466" lon="0.93825">
        <ele>191</ele>
        <time>2025-07-27T11:02:05.191Z</time>
      </trkpt>
      <trkpt lat="44.24667" lon="0.93839">
        <ele>188.9</ele>
        <time>2025-07-27T11:02:17.191Z</time>
      </trkpt>
      <trkpt lat="44.24667" lon="0.93846">
        <ele>187.8</ele>
        <time>2025-07-27T11:02:21.191Z</time>
      </trkpt>
      <trkpt lat="44.24663" lon="0.93855">
        <ele>186.7</ele>
        <time>2025-07-27T11:02:29.191Z</time>
      </trkpt>
      <trkpt lat="44.24659" lon="0.93876">
        <ele>183.6</ele>
        <time>2025-07-27T11:02:45.191Z</time>
      </trkpt>
      <trkpt lat="44.24652" lon="0.93895">
        <ele>181.6</ele>
        <time>2025-07-27T11:03:01.191Z</time>
      </trkpt>
      <trkpt lat="44.24653" lon="0.93907">
        <ele>179.5</ele>
        <time>2025-07-27T11:03:09.191Z</time>
      </trkpt>
      <trkpt lat="44.24656" lon="0.93914">
        <ele>178.2</ele>
        <time>2025-07-27T11:03:17.191Z</time>
      </trkpt>
      <trkpt lat="44.24701" lon="0.93939">
        <ele>171.1</ele>
        <time>2025-07-27T11:04:13.191Z</time>
      </trkpt>
      <trkpt lat="44.24709" lon="0.9394">
        <ele>170.3</ele>
        <time>2025-07-27T11:04:21.191Z</time>
      </trkpt>
      <trkpt lat="44.24721" lon="0.93953">
        <ele>167</ele>
        <time>2025-07-27T11:04:37.191Z</time>
      </trkpt>
      <trkpt lat="44.24741" lon="0.93959">
        <ele>163.7</ele>
        <time>2025-07-27T11:04:53.191Z</time>
      </trkpt>
      <trkpt lat="44.24754" lon="0.93975">
        <ele>161.3</ele>
        <time>2025-07-27T11:05:09.191Z</time>
      </trkpt>
      <trkpt lat="44.24789" lon="0.94043">
        <ele>152.3</ele>
        <time>2025-07-27T11:06:05.191Z</time>
      </trkpt>
      <trkpt lat="44.24791" lon="0.94052">
        <ele>151.3</ele>
        <time>2025-07-27T11:06:13.191Z</time>
      </trkpt>
      <trkpt lat="44.24833" lon="0.9413">
        <ele>143.3</ele>
        <time>2025-07-27T11:07:17.191Z</time>
      </trkpt>
      <trkpt lat="44.24842" lon="0.94154">
        <ele>142.9</ele>
        <time>2025-07-27T11:07:33.191Z</time>
      </trkpt>
      <trkpt lat="44.24854" lon="0.9417">
        <ele>142.6</ele>
        <time>2025-07-27T11:07:49.191Z</time>
      </trkpt>
      <trkpt lat="44.24857" lon="0.94173">
        <ele>142.3</ele>
        <time>2025-07-27T11:07:53.191Z</time>
      </trkpt>
      <trkpt lat="44.24869" lon="0.94171">
        <ele>141.5</ele>
        <time>2025-07-27T11:08:25.191Z</time>
      </trkpt>
      <trkpt lat="44.24884" lon="0.94163">
        <ele>140.3</ele>
        <time>2025-07-27T11:08:41.191Z</time>
      </trkpt>
      <trkpt lat="44.24889" lon="0.94164">
        <ele>140</ele>
        <time>2025-07-27T11:08:45.191Z</time>
      </trkpt>
      <trkpt lat="44.24902" lon="0.94156">
        <ele>139.5</ele>
        <time>2025-07-27T11:08:57.191Z</time>
      </trkpt>
      <trkpt lat="44.2491" lon="0.94157">
        <ele>139.3</ele>
        <time>2025-07-27T11:09:03.191Z</time>
      </trkpt>
      <trkpt lat="44.24918" lon="0.9415">
        <ele>138.9</ele>
        <time>2025-07-27T11:09:11.191Z</time>
      </trkpt>
      <trkpt lat="44.24923" lon="0.9415">
        <ele>138.6</ele>
        <time>2025-07-27T11:09:15.191Z</time>
      </trkpt>
      <trkpt lat="44.24937" lon="0.94141">
        <ele>137.6</ele>
        <time>2025-07-27T11:09:27.191Z</time>
      </trkpt>
      <trkpt lat="44.24941" lon="0.94143">
        <ele>137.3</ele>
        <time>2025-07-27T11:09:31.191Z</time>
      </trkpt>
      <trkpt lat="44.24945" lon="0.94151">
        <ele>137.4</ele>
        <time>2025-07-27T11:09:39.191Z</time>
      </trkpt>
      <trkpt lat="44.24951" lon="0.94159">
        <ele>137.7</ele>
        <time>2025-07-27T11:09:47.191Z</time>
      </trkpt>
      <trkpt lat="44.24956" lon="0.94163">
        <ele>137.9</ele>
        <time>2025-07-27T11:09:55.191Z</time>
      </trkpt>
      <trkpt lat="44.24964" lon="0.94164">
        <ele>137.9</ele>
        <time>2025-07-27T11:10:03.191Z</time>
      </trkpt>
      <trkpt lat="44.24971" lon="0.94171">
        <ele>138.2</ele>
        <time>2025-07-27T11:11:35.191Z</time>
      </trkpt>
      <trkpt lat="44.24971" lon="0.94177">
        <ele>138.3</ele>
        <time>2025-07-27T11:13:03.191Z</time>
      </trkpt>
      <trkpt lat="44.24965" lon="0.94239">
        <ele>140.8</ele>
        <time>2025-07-27T11:13:43.191Z</time>
      </trkpt>
      <trkpt lat="44.24961" lon="0.94258">
        <ele>141.6</ele>
        <time>2025-07-27T11:13:55.191Z</time>
      </trkpt>
      <trkpt lat="44.24953" lon="0.94275">
        <ele>141.3</ele>
        <time>2025-07-27T11:14:07.191Z</time>
      </trkpt>
      <trkpt lat="44.24949" lon="0.94299">
        <ele>142.3</ele>
        <time>2025-07-27T11:14:23.191Z</time>
      </trkpt>
      <trkpt lat="44.2495" lon="0.94324">
        <ele>143.3</ele>
        <time>2025-07-27T11:14:43.191Z</time>
      </trkpt>
      <trkpt lat="44.24954" lon="0.94334">
        <ele>145.6</ele>
        <time>2025-07-27T11:14:51.191Z</time>
      </trkpt>
      <trkpt lat="44.24955" lon="0.94344">
        <ele>146.8</ele>
        <time>2025-07-27T11:14:59.191Z</time>
      </trkpt>
      <trkpt lat="44.24953" lon="0.94356">
        <ele>146.6</ele>
        <time>2025-07-27T11:15:07.191Z</time>
      </trkpt>
      <trkpt lat="44.24953" lon="0.94368">
        <ele>147</ele>
        <time>2025-07-27T11:15:15.191Z</time>
      </trkpt>
      <trkpt lat="44.24958" lon="0.9439">
        <ele>149.8</ele>
        <time>2025-07-27T11:15:31.191Z</time>
      </trkpt>
      <trkpt lat="44.24957" lon="0.94401">
        <ele>149.5</ele>
        <time>2025-07-27T11:15:43.191Z</time>
      </trkpt>
      <trkpt lat="44.24959" lon="0.94412">
        <ele>151.1</ele>
        <time>2025-07-27T11:15:51.191Z</time>
      </trkpt>
      <trkpt lat="44.24959" lon="0.94419">
        <ele>151.3</ele>
        <time>2025-07-27T11:15:55.191Z</time>
      </trkpt>
      <trkpt lat="44.24962" lon="0.94425">
        <ele>152.7</ele>
        <time>2025-07-27T11:15:59.191Z</time>
      </trkpt>
      <trkpt lat="44.24965" lon="0.94455">
        <ele>155.1</ele>
        <time>2025-07-27T11:16:23.191Z</time>
      </trkpt>
      <trkpt lat="44.24965" lon="0.94478">
        <ele>156</ele>
        <time>2025-07-27T11:16:39.191Z</time>
      </trkpt>
      <trkpt lat="44.24967" lon="0.94498">
        <ele>156.3</ele>
        <time>2025-07-27T11:16:55.191Z</time>
      </trkpt>
      <trkpt lat="44.24965" lon="0.94519">
        <ele>156.9</ele>
        <time>2025-07-27T11:17:11.191Z</time>
      </trkpt>
      <trkpt lat="44.24954" lon="0.94546">
        <ele>158.4</ele>
        <time>2025-07-27T11:17:31.191Z</time>
      </trkpt>
      <trkpt lat="44.24951" lon="0.9455">
        <ele>158.3</ele>
        <time>2025-07-27T11:17:35.191Z</time>
      </trkpt>
      <trkpt lat="44.24942" lon="0.94571">
        <ele>160.6</ele>
        <time>2025-07-27T11:17:51.191Z</time>
      </trkpt>
      <trkpt lat="44.24938" lon="0.94591">
        <ele>162.4</ele>
        <time>2025-07-27T11:18:07.191Z</time>
      </trkpt>
      <trkpt lat="44.24939" lon="0.94614">
        <ele>165</ele>
        <time>2025-07-27T11:18:23.191Z</time>
      </trkpt>
      <trkpt lat="44.24937" lon="0.94623">
        <ele>164.4</ele>
        <time>2025-07-27T11:18:31.191Z</time>
      </trkpt>
      <trkpt lat="44.24938" lon="0.94635">
        <ele>164.8</ele>
        <time>2025-07-27T11:18:39.191Z</time>
      </trkpt>
      <trkpt lat="44.24942" lon="0.94654">
        <ele>165.7</ele>
        <time>2025-07-27T11:18:55.191Z</time>
      </trkpt>
      <trkpt lat="44.2495" lon="0.94674">
        <ele>167.2</ele>
        <time>2025-07-27T11:19:11.191Z</time>
      </trkpt>
      <trkpt lat="44.24956" lon="0.94678">
        <ele>168.5</ele>
        <time>2025-07-27T11:19:19.191Z</time>
      </trkpt>
      <trkpt lat="44.24958" lon="0.94682">
        <ele>169.2</ele>
        <time>2025-07-27T11:21:35.191Z</time>
      </trkpt>
      <trkpt lat="44.2496" lon="0.94701">
        <ele>168.9</ele>
        <time>2025-07-27T11:22:15.191Z</time>
      </trkpt>
      <trkpt lat="44.24965" lon="0.94706">
        <ele>170.5</ele>
        <time>2025-07-27T11:22:19.191Z</time>
      </trkpt>
      <trkpt lat="44.24969" lon="0.94734">
        <ele>172.7</ele>
        <time>2025-07-27T11:22:39.191Z</time>
      </trkpt>
      <trkpt lat="44.2496" lon="0.94771">
        <ele>171.8</ele>
        <time>2025-07-27T11:23:03.191Z</time>
      </trkpt>
      <trkpt lat="44.24955" lon="0.94805">
        <ele>173.4</ele>
        <time>2025-07-27T11:23:23.191Z</time>
      </trkpt>
      <trkpt lat="44.24953" lon="0.94851">
        <ele>172.6</ele>
        <time>2025-07-27T11:23:55.191Z</time>
      </trkpt>
      <trkpt lat="44.24988" lon="0.94968">
        <ele>180.7</ele>
        <time>2025-07-27T11:25:19.191Z</time>
      </trkpt>
      <trkpt lat="44.24988" lon="0.94987">
        <ele>180.9</ele>
        <time>2025-07-27T11:25:31.191Z</time>
      </trkpt>
      <trkpt lat="44.24988" lon="0.95002">
        <ele>181.1</ele>
        <time>2025-07-27T11:25:41.191Z</time>
      </trkpt>
      <trkpt lat="44.24987" lon="0.95019">
        <ele>181.7</ele>
        <time>2025-07-27T11:25:51.191Z</time>
      </trkpt>
      <trkpt lat="44.24981" lon="0.95029">
        <ele>179.8</ele>
        <time>2025-07-27T11:25:59.191Z</time>
      </trkpt>
      <trkpt lat="44.24981" lon="0.95039">
        <ele>181.9</ele>
        <time>2025-07-27T11:26:07.191Z</time>
      </trkpt>
      <trkpt lat="44.24976" lon="0.95057">
        <ele>183.3</ele>
        <time>2025-07-27T11:26:23.191Z</time>
      </trkpt>
      <trkpt lat="44.24983" lon="0.95084">
        <ele>187.1</ele>
        <time>2025-07-27T11:26:47.191Z</time>
      </trkpt>
      <trkpt lat="44.24998" lon="0.95105">
        <ele>190.7</ele>
        <time>2025-07-27T11:27:19.191Z</time>
      </trkpt>
      <trkpt lat="44.25002" lon="0.95109">
        <ele>191.5</ele>
        <time>2025-07-27T11:27:59.191Z</time>
      </trkpt>
      <trkpt lat="44.25009" lon="0.95107">
        <ele>192.6</ele>
        <time>2025-07-27T11:28:31.191Z</time>
      </trkpt>
      <trkpt lat="44.25014" lon="0.9511">
        <ele>193.5</ele>
        <time>2025-07-27T11:28:47.191Z</time>
      </trkpt>
      <trkpt lat="44.25024" lon="0.95118">
        <ele>195</ele>
        <time>2025-07-27T11:29:03.191Z</time>
      </trkpt>
      <trkpt lat="44.2503" lon="0.95121">
        <ele>195.9</ele>
        <time>2025-07-27T11:29:11.191Z</time>
      </trkpt>
      <trkpt lat="44.25044" lon="0.95124">
        <ele>197.5</ele>
        <time>2025-07-27T11:29:27.191Z</time>
      </trkpt>
      <trkpt lat="44.25056" lon="0.95123">
        <ele>199</ele>
        <time>2025-07-27T11:29:43.191Z</time>
      </trkpt>
      <trkpt lat="44.25062" lon="0.95121">
        <ele>199.5</ele>
        <time>2025-07-27T11:29:51.191Z</time>
      </trkpt>
      <trkpt lat="44.25065" lon="0.95116">
        <ele>199.9</ele>
        <time>2025-07-27T11:29:55.191Z</time>
      </trkpt>
      <trkpt lat="44.25079" lon="0.95117">
        <ele>201.2</ele>
        <time>2025-07-27T11:30:11.191Z</time>
      </trkpt>
      <trkpt lat="44.25111" lon="0.95107">
        <ele>204.4</ele>
        <time>2025-07-27T11:30:47.191Z</time>
      </trkpt>
      <trkpt lat="44.25136" lon="0.95105">
        <ele>207.3</ele>
        <time>2025-07-27T11:31:19.191Z</time>
      </trkpt>
      <trkpt lat="44.25152" lon="0.95101">
        <ele>208.5</ele>
        <time>2025-07-27T11:31:39.191Z</time>
      </trkpt>
      <trkpt lat="44.25163" lon="0.95096">
        <ele>209.5</ele>
        <time>2025-07-27T11:32:03.191Z</time>
      </trkpt>
      <trkpt lat="44.25189" lon="0.95092">
        <ele>209.9</ele>
        <time>2025-07-27T11:32:27.191Z</time>
      </trkpt>
      <trkpt lat="44.25194" lon="0.95089">
        <ele>210.3</ele>
        <time>2025-07-27T11:32:35.191Z</time>
      </trkpt>
      <trkpt lat="44.25222" lon="0.95082">
        <ele>209.2</ele>
        <time>2025-07-27T11:33:07.191Z</time>
      </trkpt>
      <trkpt lat="44.25227" lon="0.95084">
        <ele>209</ele>
        <time>2025-07-27T11:33:39.191Z</time>
      </trkpt>
      <trkpt lat="44.25234" lon="0.95081">
        <ele>209.2</ele>
        <time>2025-07-27T11:33:55.191Z</time>
      </trkpt>
      <trkpt lat="44.2524" lon="0.95085">
        <ele>208.9</ele>
        <time>2025-07-27T11:35:15.191Z</time>
      </trkpt>
      <trkpt lat="44.25278" lon="0.95088">
        <ele>205.8</ele>
        <time>2025-07-27T11:35:55.191Z</time>
      </trkpt>
      <trkpt lat="44.25308" lon="0.95083">
        <ele>202.9</ele>
        <time>2025-07-27T11:36:27.191Z</time>
      </trkpt>
      <trkpt lat="44.25314" lon="0.95084">
        <ele>202.4</ele>
        <time>2025-07-27T11:36:35.191Z</time>
      </trkpt>
      <trkpt lat="44.25329" lon="0.95093">
        <ele>200.6</ele>
        <time>2025-07-27T11:36:51.191Z</time>
      </trkpt>
      <trkpt lat="44.25338" lon="0.95096">
        <ele>199.9</ele>
        <time>2025-07-27T11:36:59.191Z</time>
      </trkpt>
      <trkpt lat="44.25344" lon="0.95102">
        <ele>199.3</ele>
        <time>2025-07-27T11:37:07.191Z</time>
      </trkpt>
      <trkpt lat="44.2537" lon="0.95116">
        <ele>197.5</ele>
        <time>2025-07-27T11:37:39.191Z</time>
      </trkpt>
      <trkpt lat="44.2539" lon="0.95121">
        <ele>196.7</ele>
        <time>2025-07-27T11:38:03.191Z</time>
      </trkpt>
      <trkpt lat="44.25404" lon="0.95121">
        <ele>197.7</ele>
        <time>2025-07-27T11:38:19.191Z</time>
      </trkpt>
      <trkpt lat="44.25428" lon="0.95127">
        <ele>199.1</ele>
        <time>2025-07-27T11:39:39.191Z</time>
      </trkpt>
      <trkpt lat="44.25427" lon="0.95128">
        <ele>199.1</ele>
        <time>2025-07-27T11:39:47.191Z</time>
      </trkpt>
      <trkpt lat="44.25436" lon="0.95128">
        <ele>199.7</ele>
        <time>2025-07-27T11:39:59.191Z</time>
      </trkpt>
      <trkpt lat="44.2544" lon="0.95125">
        <ele>199.8</ele>
        <time>2025-07-27T11:40:07.191Z</time>
      </trkpt>
      <trkpt lat="44.25443" lon="0.95125">
        <ele>199.9</ele>
        <time>2025-07-27T11:40:15.191Z</time>
      </trkpt>
      <trkpt lat="44.25479" lon="0.95108">
        <ele>202.4</ele>
        <time>2025-07-27T11:40:55.191Z</time>
      </trkpt>
      <trkpt lat="44.25489" lon="0.95099">
        <ele>202.8</ele>
        <time>2025-07-27T11:41:11.191Z</time>
      </trkpt>
      <trkpt lat="44.25502" lon="0.95093">
        <ele>203.4</ele>
        <time>2025-07-27T11:41:27.191Z</time>
      </trkpt>
      <trkpt lat="44.25515" lon="0.95091">
        <ele>203.8</ele>
        <time>2025-07-27T11:41:43.191Z</time>
      </trkpt>
      <trkpt lat="44.25547" lon="0.9508">
        <ele>205.4</ele>
        <time>2025-07-27T11:42:15.191Z</time>
      </trkpt>
      <trkpt lat="44.25563" lon="0.95077">
        <ele>206.8</ele>
        <time>2025-07-27T11:42:31.191Z</time>
      </trkpt>
      <trkpt lat="44.2557" lon="0.95074">
        <ele>207.5</ele>
        <time>2025-07-27T11:42:39.191Z</time>
      </trkpt>
      <trkpt lat="44.25584" lon="0.95072">
        <ele>208.8</ele>
        <time>2025-07-27T11:42:55.191Z</time>
      </trkpt>
      <trkpt lat="44.25592" lon="0.95085">
        <ele>210.3</ele>
        <time>2025-07-27T11:43:11.191Z</time>
      </trkpt>
      <trkpt lat="44.25598" lon="0.95093">
        <ele>210.5</ele>
        <time>2025-07-27T11:43:27.191Z</time>
      </trkpt>
      <trkpt lat="44.25603" lon="0.95107">
        <ele>210.7</ele>
        <time>2025-07-27T11:43:43.191Z</time>
      </trkpt>
      <trkpt lat="44.25612" lon="0.95121">
        <ele>211.8</ele>
        <time>2025-07-27T11:43:59.191Z</time>
      </trkpt>
      <trkpt lat="44.25643" lon="0.95178">
        <ele>217.5</ele>
        <time>2025-07-27T11:45:03.191Z</time>
      </trkpt>
      <trkpt lat="44.25673" lon="0.95243">
        <ele>221.9</ele>
        <time>2025-07-27T11:46:07.191Z</time>
      </trkpt>
      <trkpt lat="44.25682" lon="0.95259">
        <ele>222.7</ele>
        <time>2025-07-27T11:46:23.191Z</time>
      </trkpt>
      <trkpt lat="44.25689" lon="0.95264">
        <ele>223.2</ele>
        <time>2025-07-27T11:46:31.191Z</time>
      </trkpt>
      <trkpt lat="44.25701" lon="0.95279">
        <ele>223.8</ele>
        <time>2025-07-27T11:46:47.191Z</time>
      </trkpt>
      <trkpt lat="44.25708" lon="0.95284">
        <ele>223.6</ele>
        <time>2025-07-27T11:47:03.191Z</time>
      </trkpt>
      <trkpt lat="44.25707" lon="0.95282">
        <ele>223.6</ele>
        <time>2025-07-27T11:47:05.191Z</time>
      </trkpt>
      <trkpt lat="44.25714" lon="0.9529">
        <ele>223.6</ele>
        <time>2025-07-27T11:47:13.191Z</time>
      </trkpt>
      <trkpt lat="44.25727" lon="0.95302">
        <ele>223.9</ele>
        <time>2025-07-27T11:47:29.191Z</time>
      </trkpt>
      <trkpt lat="44.25732" lon="0.95309">
        <ele>223.9</ele>
        <time>2025-07-27T11:50:09.191Z</time>
      </trkpt>
      <trkpt lat="44.25747" lon="0.95321">
        <ele>223.9</ele>
        <time>2025-07-27T11:50:25.191Z</time>
      </trkpt>
      <trkpt lat="44.25763" lon="0.95333">
        <ele>224</ele>
        <time>2025-07-27T11:50:41.191Z</time>
      </trkpt>
      <trkpt lat="44.25777" lon="0.95346">
        <ele>224</ele>
        <time>2025-07-27T11:50:57.191Z</time>
      </trkpt>
      <trkpt lat="44.25793" lon="0.95358">
        <ele>225</ele>
        <time>2025-07-27T11:51:13.191Z</time>
      </trkpt>
      <trkpt lat="44.25801" lon="0.95365">
        <ele>225.5</ele>
        <time>2025-07-27T11:51:21.191Z</time>
      </trkpt>
      <trkpt lat="44.25811" lon="0.95371">
        <ele>225.7</ele>
        <time>2025-07-27T11:51:29.191Z</time>
      </trkpt>
      <trkpt lat="44.25818" lon="0.95379">
        <ele>225.7</ele>
        <time>2025-07-27T11:51:37.191Z</time>
      </trkpt>
      <trkpt lat="44.25832" lon="0.95399">
        <ele>225.6</ele>
        <time>2025-07-27T11:51:53.191Z</time>
      </trkpt>
      <trkpt lat="44.25832" lon="0.95406">
        <ele>225.4</ele>
        <time>2025-07-27T11:51:57.191Z</time>
      </trkpt>
      <trkpt lat="44.25823" lon="0.95458">
        <ele>224.3</ele>
        <time>2025-07-27T11:52:29.191Z</time>
      </trkpt>
      <trkpt lat="44.25824" lon="0.95517">
        <ele>224</ele>
        <time>2025-07-27T11:53:01.191Z</time>
      </trkpt>
      <trkpt lat="44.25832" lon="0.95599">
        <ele>224.4</ele>
        <time>2025-07-27T11:53:49.191Z</time>
      </trkpt>
      <trkpt lat="44.25838" lon="0.95609">
        <ele>224.1</ele>
        <time>2025-07-27T11:53:57.191Z</time>
      </trkpt>
      <trkpt lat="44.25842" lon="0.95613">
        <ele>224</ele>
        <time>2025-07-27T11:54:01.191Z</time>
      </trkpt>
      <trkpt lat="44.2588" lon="0.95622">
        <ele>222.5</ele>
        <time>2025-07-27T11:54:37.191Z</time>
      </trkpt>
      <trkpt lat="44.25892" lon="0.95625">
        <ele>221.9</ele>
        <time>2025-07-27T11:54:49.191Z</time>
      </trkpt>
      <trkpt lat="44.259" lon="0.95633">
        <ele>221.9</ele>
        <time>2025-07-27T11:54:57.191Z</time>
      </trkpt>
      <trkpt lat="44.25907" lon="0.95644">
        <ele>222.1</ele>
        <time>2025-07-27T11:55:05.191Z</time>
      </trkpt>
      <trkpt lat="44.2591" lon="0.95658">
        <ele>222.2</ele>
        <time>2025-07-27T11:55:13.191Z</time>
      </trkpt>
      <trkpt lat="44.25921" lon="0.95866">
        <ele>226.2</ele>
        <time>2025-07-27T11:57:21.191Z</time>
      </trkpt>
      <trkpt lat="44.25922" lon="0.95893">
        <ele>226.8</ele>
        <time>2025-07-27T11:57:37.191Z</time>
      </trkpt>
      <trkpt lat="44.2593" lon="0.95968">
        <ele>228.5</ele>
        <time>2025-07-27T11:58:25.191Z</time>
      </trkpt>
      <trkpt lat="44.25934" lon="0.9598">
        <ele>228.9</ele>
        <time>2025-07-27T11:58:33.191Z</time>
      </trkpt>
      <trkpt lat="44.2594" lon="0.95989">
        <ele>229.4</ele>
        <time>2025-07-27T11:58:41.191Z</time>
      </trkpt>
      <trkpt lat="44.25979" lon="0.96042">
        <ele>230</ele>
        <time>2025-07-27T11:59:29.191Z</time>
      </trkpt>
      <trkpt lat="44.25992" lon="0.96057">
        <ele>230</ele>
        <time>2025-07-27T11:59:45.191Z</time>
      </trkpt>
      <trkpt lat="44.25995" lon="0.96064">
        <ele>229.7</ele>
        <time>2025-07-27T12:00:01.191Z</time>
      </trkpt>
      <trkpt lat="44.26003" lon="0.96072">
        <ele>229.2</ele>
        <time>2025-07-27T12:00:17.191Z</time>
      </trkpt>
      <trkpt lat="44.26007" lon="0.96071">
        <ele>229.1</ele>
        <time>2025-07-27T12:00:21.191Z</time>
      </trkpt>
      <trkpt lat="44.26041" lon="0.96022">
        <ele>229.2</ele>
        <time>2025-07-27T12:01:01.191Z</time>
      </trkpt>
      <trkpt lat="44.26045" lon="0.96018">
        <ele>229</ele>
        <time>2025-07-27T12:01:05.191Z</time>
      </trkpt>
      <trkpt lat="44.26063" lon="0.95999">
        <ele>229</ele>
        <time>2025-07-27T12:01:25.191Z</time>
      </trkpt>
      <trkpt lat="44.26073" lon="0.95982">
        <ele>229.2</ele>
        <time>2025-07-27T12:02:05.191Z</time>
      </trkpt>
      <trkpt lat="44.26087" lon="0.95968">
        <ele>228.9</ele>
        <time>2025-07-27T12:02:21.191Z</time>
      </trkpt>
      <trkpt lat="44.26095" lon="0.95962">
        <ele>228.7</ele>
        <time>2025-07-27T12:02:29.191Z</time>
      </trkpt>
      <trkpt lat="44.261" lon="0.95951">
        <ele>228.8</ele>
        <time>2025-07-27T12:02:37.191Z</time>
      </trkpt>
      <trkpt lat="44.26108" lon="0.95944">
        <ele>229</ele>
        <time>2025-07-27T12:02:45.191Z</time>
      </trkpt>
      <trkpt lat="44.26115" lon="0.95938">
        <ele>229</ele>
        <time>2025-07-27T12:02:53.191Z</time>
      </trkpt>
      <trkpt lat="44.26122" lon="0.95931">
        <ele>228.8</ele>
        <time>2025-07-27T12:03:01.191Z</time>
      </trkpt>
      <trkpt lat="44.26133" lon="0.95923">
        <ele>228.4</ele>
        <time>2025-07-27T12:03:11.191Z</time>
      </trkpt>
      <trkpt lat="44.26137" lon="0.9591">
        <ele>228.1</ele>
        <time>2025-07-27T12:03:19.191Z</time>
      </trkpt>
      <trkpt lat="44.26144" lon="0.95904">
        <ele>228</ele>
        <time>2025-07-27T12:03:27.191Z</time>
      </trkpt>
      <trkpt lat="44.2615" lon="0.95896">
        <ele>228</ele>
        <time>2025-07-27T12:03:35.191Z</time>
      </trkpt>
      <trkpt lat="44.26166" lon="0.9588">
        <ele>227.7</ele>
        <time>2025-07-27T12:03:53.191Z</time>
      </trkpt>
      <trkpt lat="44.26171" lon="0.95872">
        <ele>227.4</ele>
        <time>2025-07-27T12:03:57.191Z</time>
      </trkpt>
      <trkpt lat="44.26174" lon="0.95873">
        <ele>227.5</ele>
        <time>2025-07-27T12:04:17.191Z</time>
      </trkpt>
      <trkpt lat="44.26176" lon="0.95876">
        <ele>227.5</ele>
        <time>2025-07-27T12:04:25.191Z</time>
      </trkpt>
      <trkpt lat="44.26189" lon="0.95898">
        <ele>227.2</ele>
        <time>2025-07-27T12:04:56.191Z</time>
      </trkpt>
    </trkseg>
  </trk>
</gpx>